<?xml version="1.0" encoding="UTF-8" standalone="no" ?>
<gpx xmlns="http://www.topografix.com/GPX/1/1" xmlns:xsi="http://www.w3.org/2001/XMLSchema-instance" xsi:schemaLocation="http://www.topografix.com/GPX/1/1 http://www.topografix.com/GPX/1/1/gpx.xsd" version="1.1" creator="VisuGPX - https://www.visugpx.com">
  <metadata>
    <name>Vvv p8 bayon retour 2025 </name>
  </metadata>
  <trk>
    <name><![CDATA[VVVChamagneRetour-21876672]]></name>
    <trkseg>
      <trkpt lat="48.40829" lon="6.27681">
        <ele>257</ele>
        <time>2025-10-02T07:30:22Z</time>
      </trkpt>
      <trkpt lat="48.40833" lon="6.27697">
        <ele>258</ele>
        <time>2025-10-02T07:30:24Z</time>
      </trkpt>
      <trkpt lat="48.4084" lon="6.2773">
        <ele>258</ele>
        <time>2025-10-02T07:30:28Z</time>
      </trkpt>
      <trkpt lat="48.40843" lon="6.27749">
        <ele>259</ele>
        <time>2025-10-02T07:30:30Z</time>
      </trkpt>
      <trkpt lat="48.40832" lon="6.27748">
        <ele>259</ele>
        <time>2025-10-02T07:30:32Z</time>
      </trkpt>
      <trkpt lat="48.40822" lon="6.27735">
        <ele>259</ele>
        <time>2025-10-02T07:30:35Z</time>
      </trkpt>
      <trkpt lat="48.40818" lon="6.27733">
        <ele>259</ele>
        <time>2025-10-02T07:30:35Z</time>
      </trkpt>
      <trkpt lat="48.40813" lon="6.27734">
        <ele>259</ele>
        <time>2025-10-02T07:30:36Z</time>
      </trkpt>
      <trkpt lat="48.40809" lon="6.27739">
        <ele>259</ele>
        <time>2025-10-02T07:30:37Z</time>
      </trkpt>
      <trkpt lat="48.40801" lon="6.2775">
        <ele>259</ele>
        <time>2025-10-02T07:30:39Z</time>
      </trkpt>
      <trkpt lat="48.40781" lon="6.27775">
        <ele>259</ele>
        <time>2025-10-02T07:30:44Z</time>
      </trkpt>
      <trkpt lat="48.40772" lon="6.27787">
        <ele>259</ele>
        <time>2025-10-02T07:30:46Z</time>
      </trkpt>
      <trkpt lat="48.40753" lon="6.27799">
        <ele>259</ele>
        <time>2025-10-02T07:30:50Z</time>
      </trkpt>
      <trkpt lat="48.40722" lon="6.27806">
        <ele>259</ele>
        <time>2025-10-02T07:30:55Z</time>
      </trkpt>
      <trkpt lat="48.40685" lon="6.27806">
        <ele>260</ele>
        <time>2025-10-02T07:31:02Z</time>
      </trkpt>
      <trkpt lat="48.40633" lon="6.27801">
        <ele>260</ele>
        <time>2025-10-02T07:31:11Z</time>
      </trkpt>
      <trkpt lat="48.40586" lon="6.27794">
        <ele>260</ele>
        <time>2025-10-02T07:31:19Z</time>
      </trkpt>
      <trkpt lat="48.40578" lon="6.278">
        <ele>261</ele>
        <time>2025-10-02T07:31:21Z</time>
      </trkpt>
      <trkpt lat="48.40572" lon="6.27805">
        <ele>261</ele>
        <time>2025-10-02T07:31:22Z</time>
      </trkpt>
      <trkpt lat="48.40529" lon="6.27838">
        <ele>266</ele>
        <time>2025-10-02T07:31:31Z</time>
      </trkpt>
      <trkpt lat="48.40512" lon="6.27831">
        <ele>267</ele>
        <time>2025-10-02T07:31:34Z</time>
      </trkpt>
      <trkpt lat="48.40481" lon="6.27825">
        <ele>268</ele>
        <time>2025-10-02T07:31:40Z</time>
      </trkpt>
      <trkpt lat="48.40461" lon="6.27826">
        <ele>268</ele>
        <time>2025-10-02T07:31:43Z</time>
      </trkpt>
      <trkpt lat="48.40442" lon="6.2783">
        <ele>268</ele>
        <time>2025-10-02T07:31:47Z</time>
      </trkpt>
      <trkpt lat="48.40425" lon="6.27839">
        <ele>268</ele>
        <time>2025-10-02T07:31:50Z</time>
      </trkpt>
      <trkpt lat="48.4029" lon="6.27938">
        <ele>268</ele>
        <time>2025-10-02T07:32:16Z</time>
      </trkpt>
      <trkpt lat="48.4002" lon="6.2814">
        <ele>266</ele>
        <time>2025-10-02T07:33:10Z</time>
      </trkpt>
      <trkpt lat="48.39992" lon="6.28156">
        <ele>266</ele>
        <time>2025-10-02T07:33:15Z</time>
      </trkpt>
      <trkpt lat="48.39976" lon="6.28163">
        <ele>266</ele>
        <time>2025-10-02T07:33:18Z</time>
      </trkpt>
      <trkpt lat="48.39955" lon="6.2817">
        <ele>266</ele>
        <time>2025-10-02T07:33:22Z</time>
      </trkpt>
      <trkpt lat="48.39937" lon="6.28174">
        <ele>266</ele>
        <time>2025-10-02T07:33:25Z</time>
      </trkpt>
      <trkpt lat="48.39625" lon="6.28222">
        <ele>265</ele>
        <time>2025-10-02T07:34:21Z</time>
      </trkpt>
      <trkpt lat="48.39257" lon="6.28279">
        <ele>273</ele>
        <time>2025-10-02T07:35:27Z</time>
      </trkpt>
      <trkpt lat="48.39241" lon="6.28283">
        <ele>273</ele>
        <time>2025-10-02T07:35:30Z</time>
      </trkpt>
      <trkpt lat="48.39227" lon="6.28288">
        <ele>274</ele>
        <time>2025-10-02T07:35:33Z</time>
      </trkpt>
      <trkpt lat="48.3921" lon="6.28297">
        <ele>274</ele>
        <time>2025-10-02T07:35:36Z</time>
      </trkpt>
      <trkpt lat="48.39192" lon="6.2831">
        <ele>275</ele>
        <time>2025-10-02T07:35:39Z</time>
      </trkpt>
      <trkpt lat="48.39177" lon="6.28322">
        <ele>276</ele>
        <time>2025-10-02T07:35:42Z</time>
      </trkpt>
      <trkpt lat="48.39061" lon="6.28437">
        <ele>274</ele>
        <time>2025-10-02T07:36:07Z</time>
      </trkpt>
      <trkpt lat="48.39021" lon="6.28477">
        <ele>274</ele>
        <time>2025-10-02T07:36:16Z</time>
      </trkpt>
      <trkpt lat="48.38957" lon="6.2854">
        <ele>275</ele>
        <time>2025-10-02T07:36:29Z</time>
      </trkpt>
      <trkpt lat="48.38856" lon="6.28644">
        <ele>278</ele>
        <time>2025-10-02T07:36:51Z</time>
      </trkpt>
      <trkpt lat="48.38751" lon="6.28743">
        <ele>278</ele>
        <time>2025-10-02T07:37:13Z</time>
      </trkpt>
      <trkpt lat="48.38695" lon="6.28798">
        <ele>279</ele>
        <time>2025-10-02T07:37:25Z</time>
      </trkpt>
      <trkpt lat="48.38489" lon="6.28999">
        <ele>282</ele>
        <time>2025-10-02T07:38:09Z</time>
      </trkpt>
      <trkpt lat="48.38169" lon="6.29313">
        <ele>284</ele>
        <time>2025-10-02T07:39:17Z</time>
      </trkpt>
      <trkpt lat="48.38051" lon="6.2943">
        <ele>284</ele>
        <time>2025-10-02T07:39:42Z</time>
      </trkpt>
      <trkpt lat="48.37986" lon="6.29493">
        <ele>285</ele>
        <time>2025-10-02T07:39:55Z</time>
      </trkpt>
      <trkpt lat="48.37937" lon="6.29542">
        <ele>287</ele>
        <time>2025-10-02T07:40:06Z</time>
      </trkpt>
      <trkpt lat="48.37891" lon="6.29586">
        <ele>287</ele>
        <time>2025-10-02T07:40:16Z</time>
      </trkpt>
      <trkpt lat="48.37849" lon="6.29629">
        <ele>287</ele>
        <time>2025-10-02T07:40:25Z</time>
      </trkpt>
      <trkpt lat="48.37844" lon="6.29634">
        <ele>287</ele>
        <time>2025-10-02T07:40:26Z</time>
      </trkpt>
      <trkpt lat="48.378" lon="6.29678">
        <ele>286</ele>
        <time>2025-10-02T07:40:35Z</time>
      </trkpt>
      <trkpt lat="48.37779" lon="6.29698">
        <ele>285</ele>
        <time>2025-10-02T07:40:40Z</time>
      </trkpt>
      <trkpt lat="48.37776" lon="6.29702">
        <ele>285</ele>
        <time>2025-10-02T07:40:40Z</time>
      </trkpt>
      <trkpt lat="48.37781" lon="6.2971">
        <ele>285</ele>
        <time>2025-10-02T07:40:42Z</time>
      </trkpt>
      <trkpt lat="48.37831" lon="6.29766">
        <ele>287</ele>
        <time>2025-10-02T07:40:53Z</time>
      </trkpt>
      <trkpt lat="48.37897" lon="6.2987">
        <ele>288</ele>
        <time>2025-10-02T07:41:10Z</time>
      </trkpt>
      <trkpt lat="48.37932" lon="6.29926">
        <ele>288</ele>
        <time>2025-10-02T07:41:19Z</time>
      </trkpt>
      <trkpt lat="48.37937" lon="6.29933">
        <ele>288</ele>
        <time>2025-10-02T07:41:20Z</time>
      </trkpt>
      <trkpt lat="48.37978" lon="6.29966">
        <ele>287</ele>
        <time>2025-10-02T07:41:28Z</time>
      </trkpt>
      <trkpt lat="48.37982" lon="6.2997">
        <ele>287</ele>
        <time>2025-10-02T07:41:29Z</time>
      </trkpt>
      <trkpt lat="48.37991" lon="6.2998">
        <ele>287</ele>
        <time>2025-10-02T07:41:31Z</time>
      </trkpt>
      <trkpt lat="48.37999" lon="6.29992">
        <ele>286</ele>
        <time>2025-10-02T07:41:33Z</time>
      </trkpt>
      <trkpt lat="48.38004" lon="6.30001">
        <ele>286</ele>
        <time>2025-10-02T07:41:34Z</time>
      </trkpt>
      <trkpt lat="48.38017" lon="6.30028">
        <ele>287</ele>
        <time>2025-10-02T07:41:38Z</time>
      </trkpt>
      <trkpt lat="48.38021" lon="6.30036">
        <ele>287</ele>
        <time>2025-10-02T07:41:40Z</time>
      </trkpt>
      <trkpt lat="48.38025" lon="6.30043">
        <ele>287</ele>
        <time>2025-10-02T07:41:41Z</time>
      </trkpt>
      <trkpt lat="48.38037" lon="6.30057">
        <ele>287</ele>
        <time>2025-10-02T07:41:43Z</time>
      </trkpt>
      <trkpt lat="48.38059" lon="6.30077">
        <ele>288</ele>
        <time>2025-10-02T07:41:48Z</time>
      </trkpt>
      <trkpt lat="48.38216" lon="6.302">
        <ele>290</ele>
        <time>2025-10-02T07:42:19Z</time>
      </trkpt>
      <trkpt lat="48.38275" lon="6.30247">
        <ele>291</ele>
        <time>2025-10-02T07:42:31Z</time>
      </trkpt>
      <trkpt lat="48.3829" lon="6.30257">
        <ele>291</ele>
        <time>2025-10-02T07:42:34Z</time>
      </trkpt>
      <trkpt lat="48.38303" lon="6.30265">
        <ele>291</ele>
        <time>2025-10-02T07:42:37Z</time>
      </trkpt>
      <trkpt lat="48.38368" lon="6.30302">
        <ele>291</ele>
        <time>2025-10-02T07:42:49Z</time>
      </trkpt>
      <trkpt lat="48.38389" lon="6.30314">
        <ele>292</ele>
        <time>2025-10-02T07:42:53Z</time>
      </trkpt>
      <trkpt lat="48.38418" lon="6.30334">
        <ele>292</ele>
        <time>2025-10-02T07:42:59Z</time>
      </trkpt>
      <trkpt lat="48.38429" lon="6.30344">
        <ele>292</ele>
        <time>2025-10-02T07:43:01Z</time>
      </trkpt>
      <trkpt lat="48.38471" lon="6.30384">
        <ele>290</ele>
        <time>2025-10-02T07:43:10Z</time>
      </trkpt>
      <trkpt lat="48.38504" lon="6.30415">
        <ele>288</ele>
        <time>2025-10-02T07:43:17Z</time>
      </trkpt>
      <trkpt lat="48.38518" lon="6.30425">
        <ele>288</ele>
        <time>2025-10-02T07:43:20Z</time>
      </trkpt>
      <trkpt lat="48.38537" lon="6.30437">
        <ele>288</ele>
        <time>2025-10-02T07:43:23Z</time>
      </trkpt>
      <trkpt lat="48.38605" lon="6.30469">
        <ele>290</ele>
        <time>2025-10-02T07:43:36Z</time>
      </trkpt>
      <trkpt lat="48.38641" lon="6.30489">
        <ele>291</ele>
        <time>2025-10-02T07:43:43Z</time>
      </trkpt>
      <trkpt lat="48.38661" lon="6.30503">
        <ele>292</ele>
        <time>2025-10-02T07:43:47Z</time>
      </trkpt>
      <trkpt lat="48.38678" lon="6.30519">
        <ele>293</ele>
        <time>2025-10-02T07:43:50Z</time>
      </trkpt>
      <trkpt lat="48.3882" lon="6.30667">
        <ele>297</ele>
        <time>2025-10-02T07:44:21Z</time>
      </trkpt>
      <trkpt lat="48.39175" lon="6.31031">
        <ele>301</ele>
        <time>2025-10-02T07:45:37Z</time>
      </trkpt>
      <trkpt lat="48.39211" lon="6.3107">
        <ele>302</ele>
        <time>2025-10-02T07:45:45Z</time>
      </trkpt>
      <trkpt lat="48.39709" lon="6.31582">
        <ele>307</ele>
        <time>2025-10-02T07:47:33Z</time>
      </trkpt>
      <trkpt lat="48.39806" lon="6.3168">
        <ele>309</ele>
        <time>2025-10-02T07:47:53Z</time>
      </trkpt>
      <trkpt lat="48.40015" lon="6.31893">
        <ele>308</ele>
        <time>2025-10-02T07:48:38Z</time>
      </trkpt>
      <trkpt lat="48.4006" lon="6.31935">
        <ele>308</ele>
        <time>2025-10-02T07:48:48Z</time>
      </trkpt>
      <trkpt lat="48.40081" lon="6.31957">
        <ele>309</ele>
        <time>2025-10-02T07:48:52Z</time>
      </trkpt>
      <trkpt lat="48.40285" lon="6.32162">
        <ele>313</ele>
        <time>2025-10-02T07:49:36Z</time>
      </trkpt>
      <trkpt lat="48.40699" lon="6.32576">
        <ele>310</ele>
        <time>2025-10-02T07:51:04Z</time>
      </trkpt>
      <trkpt lat="48.41018" lon="6.32899">
        <ele>318</ele>
        <time>2025-10-02T07:52:13Z</time>
      </trkpt>
      <trkpt lat="48.41076" lon="6.32959">
        <ele>321</ele>
        <time>2025-10-02T07:52:25Z</time>
      </trkpt>
      <trkpt lat="48.41138" lon="6.33017">
        <ele>321</ele>
        <time>2025-10-02T07:52:38Z</time>
      </trkpt>
      <trkpt lat="48.41384" lon="6.33255">
        <ele>324</ele>
        <time>2025-10-02T07:53:30Z</time>
      </trkpt>
      <trkpt lat="48.41503" lon="6.33372">
        <ele>316</ele>
        <time>2025-10-02T07:53:55Z</time>
      </trkpt>
      <trkpt lat="48.41525" lon="6.33391">
        <ele>316</ele>
        <time>2025-10-02T07:54:00Z</time>
      </trkpt>
      <trkpt lat="48.41538" lon="6.33401">
        <ele>316</ele>
        <time>2025-10-02T07:54:03Z</time>
      </trkpt>
      <trkpt lat="48.41555" lon="6.3341">
        <ele>317</ele>
        <time>2025-10-02T07:54:06Z</time>
      </trkpt>
      <trkpt lat="48.41574" lon="6.33416">
        <ele>317</ele>
        <time>2025-10-02T07:54:09Z</time>
      </trkpt>
      <trkpt lat="48.41679" lon="6.33458">
        <ele>313</ele>
        <time>2025-10-02T07:54:29Z</time>
      </trkpt>
      <trkpt lat="48.42332" lon="6.33713">
        <ele>328</ele>
        <time>2025-10-02T07:56:29Z</time>
      </trkpt>
      <trkpt lat="48.42575" lon="6.33779">
        <ele>331</ele>
        <time>2025-10-02T07:57:12Z</time>
      </trkpt>
      <trkpt lat="48.42626" lon="6.33798">
        <ele>332</ele>
        <time>2025-10-02T07:57:22Z</time>
      </trkpt>
      <trkpt lat="48.42647" lon="6.33805">
        <ele>333</ele>
        <time>2025-10-02T07:57:26Z</time>
      </trkpt>
      <trkpt lat="48.42655" lon="6.33806">
        <ele>333</ele>
        <time>2025-10-02T07:57:27Z</time>
      </trkpt>
      <trkpt lat="48.42673" lon="6.33804">
        <ele>333</ele>
        <time>2025-10-02T07:57:30Z</time>
      </trkpt>
      <trkpt lat="48.42723" lon="6.33786">
        <ele>334</ele>
        <time>2025-10-02T07:57:39Z</time>
      </trkpt>
      <trkpt lat="48.42729" lon="6.33786">
        <ele>334</ele>
        <time>2025-10-02T07:57:41Z</time>
      </trkpt>
      <trkpt lat="48.4274" lon="6.33787">
        <ele>334</ele>
        <time>2025-10-02T07:57:42Z</time>
      </trkpt>
      <trkpt lat="48.42749" lon="6.3379">
        <ele>335</ele>
        <time>2025-10-02T07:57:44Z</time>
      </trkpt>
      <trkpt lat="48.42758" lon="6.33794">
        <ele>335</ele>
        <time>2025-10-02T07:57:46Z</time>
      </trkpt>
      <trkpt lat="48.42886" lon="6.33879">
        <ele>344</ele>
        <time>2025-10-02T07:58:11Z</time>
      </trkpt>
      <trkpt lat="48.42976" lon="6.33928">
        <ele>351</ele>
        <time>2025-10-02T07:58:28Z</time>
      </trkpt>
      <trkpt lat="48.42992" lon="6.33931">
        <ele>353</ele>
        <time>2025-10-02T07:58:31Z</time>
      </trkpt>
      <trkpt lat="48.43" lon="6.33931">
        <ele>353</ele>
        <time>2025-10-02T07:58:32Z</time>
      </trkpt>
      <trkpt lat="48.43007" lon="6.33928">
        <ele>354</ele>
        <time>2025-10-02T07:58:33Z</time>
      </trkpt>
      <trkpt lat="48.43038" lon="6.339">
        <ele>356</ele>
        <time>2025-10-02T07:58:40Z</time>
      </trkpt>
      <trkpt lat="48.43049" lon="6.33886">
        <ele>356</ele>
        <time>2025-10-02T07:58:42Z</time>
      </trkpt>
      <trkpt lat="48.43072" lon="6.33853">
        <ele>357</ele>
        <time>2025-10-02T07:58:48Z</time>
      </trkpt>
      <trkpt lat="48.43092" lon="6.33826">
        <ele>357</ele>
        <time>2025-10-02T07:58:53Z</time>
      </trkpt>
      <trkpt lat="48.43114" lon="6.33794">
        <ele>356</ele>
        <time>2025-10-02T07:58:58Z</time>
      </trkpt>
      <trkpt lat="48.43116" lon="6.33792">
        <ele>356</ele>
        <time>2025-10-02T07:58:59Z</time>
      </trkpt>
      <trkpt lat="48.43153" lon="6.33842">
        <ele>357</ele>
        <time>2025-10-02T07:59:07Z</time>
      </trkpt>
      <trkpt lat="48.43165" lon="6.33858">
        <ele>357</ele>
        <time>2025-10-02T07:59:10Z</time>
      </trkpt>
      <trkpt lat="48.43171" lon="6.33869">
        <ele>357</ele>
        <time>2025-10-02T07:59:12Z</time>
      </trkpt>
      <trkpt lat="48.43184" lon="6.33897">
        <ele>357</ele>
        <time>2025-10-02T07:59:16Z</time>
      </trkpt>
      <trkpt lat="48.43212" lon="6.33965">
        <ele>357</ele>
        <time>2025-10-02T07:59:25Z</time>
      </trkpt>
      <trkpt lat="48.4322" lon="6.3398">
        <ele>357</ele>
        <time>2025-10-02T07:59:28Z</time>
      </trkpt>
      <trkpt lat="48.43226" lon="6.33984">
        <ele>357</ele>
        <time>2025-10-02T07:59:29Z</time>
      </trkpt>
      <trkpt lat="48.4323" lon="6.33985">
        <ele>357</ele>
        <time>2025-10-02T07:59:30Z</time>
      </trkpt>
      <trkpt lat="48.43252" lon="6.33985">
        <ele>357</ele>
        <time>2025-10-02T07:59:34Z</time>
      </trkpt>
      <trkpt lat="48.43266" lon="6.33989">
        <ele>356</ele>
        <time>2025-10-02T07:59:36Z</time>
      </trkpt>
      <trkpt lat="48.43274" lon="6.33993">
        <ele>356</ele>
        <time>2025-10-02T07:59:38Z</time>
      </trkpt>
      <trkpt lat="48.43292" lon="6.34004">
        <ele>355</ele>
        <time>2025-10-02T07:59:41Z</time>
      </trkpt>
      <trkpt lat="48.43456" lon="6.34116">
        <ele>346</ele>
        <time>2025-10-02T08:00:13Z</time>
      </trkpt>
      <trkpt lat="48.43469" lon="6.34125">
        <ele>345</ele>
        <time>2025-10-02T08:00:16Z</time>
      </trkpt>
      <trkpt lat="48.43491" lon="6.34141">
        <ele>344</ele>
        <time>2025-10-02T08:00:20Z</time>
      </trkpt>
      <trkpt lat="48.43507" lon="6.34154">
        <ele>344</ele>
        <time>2025-10-02T08:00:23Z</time>
      </trkpt>
      <trkpt lat="48.4352" lon="6.34167">
        <ele>344</ele>
        <time>2025-10-02T08:00:26Z</time>
      </trkpt>
      <trkpt lat="48.4353" lon="6.34182">
        <ele>344</ele>
        <time>2025-10-02T08:00:28Z</time>
      </trkpt>
      <trkpt lat="48.43536" lon="6.34192">
        <ele>344</ele>
        <time>2025-10-02T08:00:30Z</time>
      </trkpt>
      <trkpt lat="48.43543" lon="6.34206">
        <ele>343</ele>
        <time>2025-10-02T08:00:32Z</time>
      </trkpt>
      <trkpt lat="48.43594" lon="6.34333">
        <ele>338</ele>
        <time>2025-10-02T08:00:50Z</time>
      </trkpt>
      <trkpt lat="48.43626" lon="6.3441">
        <ele>334</ele>
        <time>2025-10-02T08:01:00Z</time>
      </trkpt>
      <trkpt lat="48.43642" lon="6.3445">
        <ele>333</ele>
        <time>2025-10-02T08:01:06Z</time>
      </trkpt>
      <trkpt lat="48.43648" lon="6.34471">
        <ele>333</ele>
        <time>2025-10-02T08:01:09Z</time>
      </trkpt>
      <trkpt lat="48.43651" lon="6.34491">
        <ele>332</ele>
        <time>2025-10-02T08:01:11Z</time>
      </trkpt>
      <trkpt lat="48.43651" lon="6.345">
        <ele>331</ele>
        <time>2025-10-02T08:01:12Z</time>
      </trkpt>
      <trkpt lat="48.4365" lon="6.34515">
        <ele>331</ele>
        <time>2025-10-02T08:01:14Z</time>
      </trkpt>
      <trkpt lat="48.43642" lon="6.34585">
        <ele>327</ele>
        <time>2025-10-02T08:01:22Z</time>
      </trkpt>
      <trkpt lat="48.43641" lon="6.34606">
        <ele>325</ele>
        <time>2025-10-02T08:01:25Z</time>
      </trkpt>
      <trkpt lat="48.43641" lon="6.34624">
        <ele>324</ele>
        <time>2025-10-02T08:01:27Z</time>
      </trkpt>
      <trkpt lat="48.43642" lon="6.34647">
        <ele>322</ele>
        <time>2025-10-02T08:01:30Z</time>
      </trkpt>
      <trkpt lat="48.43646" lon="6.34673">
        <ele>321</ele>
        <time>2025-10-02T08:01:33Z</time>
      </trkpt>
      <trkpt lat="48.4365" lon="6.34696">
        <ele>319</ele>
        <time>2025-10-02T08:01:36Z</time>
      </trkpt>
      <trkpt lat="48.43654" lon="6.3471">
        <ele>319</ele>
        <time>2025-10-02T08:01:37Z</time>
      </trkpt>
      <trkpt lat="48.43663" lon="6.34737">
        <ele>317</ele>
        <time>2025-10-02T08:01:41Z</time>
      </trkpt>
      <trkpt lat="48.4367" lon="6.34752">
        <ele>316</ele>
        <time>2025-10-02T08:01:43Z</time>
      </trkpt>
      <trkpt lat="48.4368" lon="6.34769">
        <ele>315</ele>
        <time>2025-10-02T08:01:46Z</time>
      </trkpt>
      <trkpt lat="48.43705" lon="6.34807">
        <ele>311</ele>
        <time>2025-10-02T08:01:52Z</time>
      </trkpt>
      <trkpt lat="48.43712" lon="6.34821">
        <ele>310</ele>
        <time>2025-10-02T08:01:54Z</time>
      </trkpt>
      <trkpt lat="48.43725" lon="6.34846">
        <ele>307</ele>
        <time>2025-10-02T08:01:58Z</time>
      </trkpt>
      <trkpt lat="48.43731" lon="6.34863">
        <ele>307</ele>
        <time>2025-10-02T08:02:00Z</time>
      </trkpt>
      <trkpt lat="48.43736" lon="6.34882">
        <ele>306</ele>
        <time>2025-10-02T08:02:03Z</time>
      </trkpt>
      <trkpt lat="48.4374" lon="6.34899">
        <ele>306</ele>
        <time>2025-10-02T08:02:05Z</time>
      </trkpt>
      <trkpt lat="48.43742" lon="6.34913">
        <ele>305</ele>
        <time>2025-10-02T08:02:06Z</time>
      </trkpt>
      <trkpt lat="48.43743" lon="6.34949">
        <ele>304</ele>
        <time>2025-10-02T08:02:11Z</time>
      </trkpt>
      <trkpt lat="48.43743" lon="6.34995">
        <ele>304</ele>
        <time>2025-10-02T08:02:16Z</time>
      </trkpt>
      <trkpt lat="48.43743" lon="6.35002">
        <ele>304</ele>
        <time>2025-10-02T08:02:17Z</time>
      </trkpt>
      <trkpt lat="48.43742" lon="6.35089">
        <ele>300</ele>
        <time>2025-10-02T08:02:27Z</time>
      </trkpt>
      <trkpt lat="48.43744" lon="6.35124">
        <ele>299</ele>
        <time>2025-10-02T08:02:31Z</time>
      </trkpt>
      <trkpt lat="48.43745" lon="6.35139">
        <ele>298</ele>
        <time>2025-10-02T08:02:33Z</time>
      </trkpt>
      <trkpt lat="48.43752" lon="6.35177">
        <ele>297</ele>
        <time>2025-10-02T08:02:38Z</time>
      </trkpt>
      <trkpt lat="48.43796" lon="6.35384">
        <ele>292</ele>
        <time>2025-10-02T08:03:03Z</time>
      </trkpt>
      <trkpt lat="48.43856" lon="6.35666">
        <ele>286</ele>
        <time>2025-10-02T08:03:38Z</time>
      </trkpt>
      <trkpt lat="48.43867" lon="6.35721">
        <ele>285</ele>
        <time>2025-10-02T08:03:45Z</time>
      </trkpt>
      <trkpt lat="48.43873" lon="6.35756">
        <ele>285</ele>
        <time>2025-10-02T08:03:49Z</time>
      </trkpt>
      <trkpt lat="48.43885" lon="6.35839">
        <ele>283</ele>
        <time>2025-10-02T08:03:59Z</time>
      </trkpt>
      <trkpt lat="48.43891" lon="6.35885">
        <ele>282</ele>
        <time>2025-10-02T08:04:05Z</time>
      </trkpt>
      <trkpt lat="48.43893" lon="6.35913">
        <ele>282</ele>
        <time>2025-10-02T08:04:08Z</time>
      </trkpt>
      <trkpt lat="48.43897" lon="6.3596">
        <ele>282</ele>
        <time>2025-10-02T08:04:14Z</time>
      </trkpt>
      <trkpt lat="48.43896" lon="6.35971">
        <ele>282</ele>
        <time>2025-10-02T08:04:15Z</time>
      </trkpt>
      <trkpt lat="48.43896" lon="6.35981">
        <ele>281</ele>
        <time>2025-10-02T08:04:16Z</time>
      </trkpt>
      <trkpt lat="48.43891" lon="6.35999">
        <ele>281</ele>
        <time>2025-10-02T08:04:19Z</time>
      </trkpt>
      <trkpt lat="48.43885" lon="6.36008">
        <ele>281</ele>
        <time>2025-10-02T08:04:20Z</time>
      </trkpt>
      <trkpt lat="48.4388" lon="6.36012">
        <ele>281</ele>
        <time>2025-10-02T08:04:21Z</time>
      </trkpt>
      <trkpt lat="48.43841" lon="6.36037">
        <ele>281</ele>
        <time>2025-10-02T08:04:29Z</time>
      </trkpt>
      <trkpt lat="48.43831" lon="6.36048">
        <ele>281</ele>
        <time>2025-10-02T08:04:31Z</time>
      </trkpt>
      <trkpt lat="48.43827" lon="6.36052">
        <ele>281</ele>
        <time>2025-10-02T08:04:32Z</time>
      </trkpt>
      <trkpt lat="48.43822" lon="6.36066">
        <ele>281</ele>
        <time>2025-10-02T08:04:34Z</time>
      </trkpt>
      <trkpt lat="48.4382" lon="6.36075">
        <ele>281</ele>
        <time>2025-10-02T08:04:35Z</time>
      </trkpt>
      <trkpt lat="48.43819" lon="6.36083">
        <ele>280</ele>
        <time>2025-10-02T08:04:36Z</time>
      </trkpt>
      <trkpt lat="48.43821" lon="6.36099">
        <ele>280</ele>
        <time>2025-10-02T08:04:38Z</time>
      </trkpt>
      <trkpt lat="48.43823" lon="6.3611">
        <ele>280</ele>
        <time>2025-10-02T08:04:39Z</time>
      </trkpt>
      <trkpt lat="48.43882" lon="6.36348">
        <ele>274</ele>
        <time>2025-10-02T08:05:09Z</time>
      </trkpt>
      <trkpt lat="48.43942" lon="6.36592">
        <ele>277</ele>
        <time>2025-10-02T08:05:40Z</time>
      </trkpt>
      <trkpt lat="48.43984" lon="6.36756">
        <ele>280</ele>
        <time>2025-10-02T08:06:00Z</time>
      </trkpt>
      <trkpt lat="48.43987" lon="6.36771">
        <ele>280</ele>
        <time>2025-10-02T08:06:02Z</time>
      </trkpt>
      <trkpt lat="48.43987" lon="6.36778">
        <ele>279</ele>
        <time>2025-10-02T08:06:03Z</time>
      </trkpt>
      <trkpt lat="48.43985" lon="6.36787">
        <ele>279</ele>
        <time>2025-10-02T08:06:04Z</time>
      </trkpt>
      <trkpt lat="48.43983" lon="6.36794">
        <ele>279</ele>
        <time>2025-10-02T08:06:05Z</time>
      </trkpt>
      <trkpt lat="48.43975" lon="6.36813">
        <ele>278</ele>
        <time>2025-10-02T08:06:08Z</time>
      </trkpt>
      <trkpt lat="48.43943" lon="6.36867">
        <ele>275</ele>
        <time>2025-10-02T08:06:16Z</time>
      </trkpt>
      <trkpt lat="48.43921" lon="6.36907">
        <ele>271</ele>
        <time>2025-10-02T08:06:22Z</time>
      </trkpt>
      <trkpt lat="48.43791" lon="6.37158">
        <ele>260</ele>
        <time>2025-10-02T08:07:00Z</time>
      </trkpt>
      <trkpt lat="48.43787" lon="6.37165">
        <ele>260</ele>
        <time>2025-10-02T08:07:01Z</time>
      </trkpt>
      <trkpt lat="48.43784" lon="6.37172">
        <ele>260</ele>
        <time>2025-10-02T08:07:02Z</time>
      </trkpt>
      <trkpt lat="48.43698" lon="6.37337">
        <ele>266</ele>
        <time>2025-10-02T08:07:27Z</time>
      </trkpt>
      <trkpt lat="48.43668" lon="6.37392">
        <ele>266</ele>
        <time>2025-10-02T08:07:35Z</time>
      </trkpt>
      <trkpt lat="48.43639" lon="6.37443">
        <ele>265</ele>
        <time>2025-10-02T08:07:43Z</time>
      </trkpt>
      <trkpt lat="48.43603" lon="6.37499">
        <ele>265</ele>
        <time>2025-10-02T08:07:52Z</time>
      </trkpt>
      <trkpt lat="48.4359" lon="6.37522">
        <ele>265</ele>
        <time>2025-10-02T08:07:56Z</time>
      </trkpt>
      <trkpt lat="48.43578" lon="6.37543">
        <ele>266</ele>
        <time>2025-10-02T08:07:59Z</time>
      </trkpt>
      <trkpt lat="48.43567" lon="6.37566">
        <ele>266</ele>
        <time>2025-10-02T08:08:03Z</time>
      </trkpt>
      <trkpt lat="48.43556" lon="6.37591">
        <ele>267</ele>
        <time>2025-10-02T08:08:06Z</time>
      </trkpt>
      <trkpt lat="48.43541" lon="6.37629">
        <ele>268</ele>
        <time>2025-10-02T08:08:11Z</time>
      </trkpt>
      <trkpt lat="48.43532" lon="6.37648">
        <ele>268</ele>
        <time>2025-10-02T08:08:14Z</time>
      </trkpt>
      <trkpt lat="48.43512" lon="6.37682">
        <ele>269</ele>
        <time>2025-10-02T08:08:20Z</time>
      </trkpt>
      <trkpt lat="48.43468" lon="6.37619">
        <ele>272</ele>
        <time>2025-10-02T08:08:30Z</time>
      </trkpt>
      <trkpt lat="48.43449" lon="6.37596">
        <ele>273</ele>
        <time>2025-10-02T08:08:35Z</time>
      </trkpt>
      <trkpt lat="48.43405" lon="6.37556">
        <ele>274</ele>
        <time>2025-10-02T08:08:44Z</time>
      </trkpt>
      <trkpt lat="48.43369" lon="6.37527">
        <ele>274</ele>
        <time>2025-10-02T08:08:51Z</time>
      </trkpt>
      <trkpt lat="48.43355" lon="6.37521">
        <ele>275</ele>
        <time>2025-10-02T08:08:54Z</time>
      </trkpt>
      <trkpt lat="48.43335" lon="6.37505">
        <ele>275</ele>
        <time>2025-10-02T08:08:58Z</time>
      </trkpt>
      <trkpt lat="48.43254" lon="6.37398">
        <ele>277</ele>
        <time>2025-10-02T08:09:17Z</time>
      </trkpt>
      <trkpt lat="48.43216" lon="6.37369">
        <ele>278</ele>
        <time>2025-10-02T08:09:24Z</time>
      </trkpt>
      <trkpt lat="48.43129" lon="6.37328">
        <ele>279</ele>
        <time>2025-10-02T08:09:41Z</time>
      </trkpt>
      <trkpt lat="48.43112" lon="6.37323">
        <ele>279</ele>
        <time>2025-10-02T08:09:44Z</time>
      </trkpt>
      <trkpt lat="48.43092" lon="6.37326">
        <ele>279</ele>
        <time>2025-10-02T08:09:47Z</time>
      </trkpt>
      <trkpt lat="48.43046" lon="6.37376">
        <ele>279</ele>
        <time>2025-10-02T08:09:57Z</time>
      </trkpt>
      <trkpt lat="48.42917" lon="6.37536">
        <ele>279</ele>
        <time>2025-10-02T08:10:27Z</time>
      </trkpt>
      <trkpt lat="48.42898" lon="6.37555">
        <ele>278</ele>
        <time>2025-10-02T08:10:31Z</time>
      </trkpt>
      <trkpt lat="48.4285" lon="6.37554">
        <ele>277</ele>
        <time>2025-10-02T08:10:40Z</time>
      </trkpt>
      <trkpt lat="48.42829" lon="6.37568">
        <ele>277</ele>
        <time>2025-10-02T08:10:44Z</time>
      </trkpt>
      <trkpt lat="48.42792" lon="6.37611">
        <ele>276</ele>
        <time>2025-10-02T08:10:52Z</time>
      </trkpt>
      <trkpt lat="48.42761" lon="6.37662">
        <ele>276</ele>
        <time>2025-10-02T08:11:00Z</time>
      </trkpt>
      <trkpt lat="48.42706" lon="6.37852">
        <ele>282</ele>
        <time>2025-10-02T08:11:25Z</time>
      </trkpt>
      <trkpt lat="48.42697" lon="6.37882">
        <ele>284</ele>
        <time>2025-10-02T08:11:29Z</time>
      </trkpt>
      <trkpt lat="48.42608" lon="6.38021">
        <ele>290</ele>
        <time>2025-10-02T08:11:51Z</time>
      </trkpt>
      <trkpt lat="48.425" lon="6.3817">
        <ele>293</ele>
        <time>2025-10-02T08:12:18Z</time>
      </trkpt>
      <trkpt lat="48.42451" lon="6.38253">
        <ele>290</ele>
        <time>2025-10-02T08:12:31Z</time>
      </trkpt>
      <trkpt lat="48.42422" lon="6.38347">
        <ele>280</ele>
        <time>2025-10-02T08:12:43Z</time>
      </trkpt>
      <trkpt lat="48.42378" lon="6.38481">
        <ele>272</ele>
        <time>2025-10-02T08:13:01Z</time>
      </trkpt>
      <trkpt lat="48.4236" lon="6.38508">
        <ele>270</ele>
        <time>2025-10-02T08:13:05Z</time>
      </trkpt>
      <trkpt lat="48.42342" lon="6.38528">
        <ele>269</ele>
        <time>2025-10-02T08:13:09Z</time>
      </trkpt>
      <trkpt lat="48.42283" lon="6.38575">
        <ele>268</ele>
        <time>2025-10-02T08:13:21Z</time>
      </trkpt>
      <trkpt lat="48.42277" lon="6.38579">
        <ele>268</ele>
        <time>2025-10-02T08:13:22Z</time>
      </trkpt>
      <trkpt lat="48.42257" lon="6.38599">
        <ele>268</ele>
        <time>2025-10-02T08:13:26Z</time>
      </trkpt>
      <trkpt lat="48.4221" lon="6.38658">
        <ele>268</ele>
        <time>2025-10-02T08:13:37Z</time>
      </trkpt>
      <trkpt lat="48.42164" lon="6.38715">
        <ele>267</ele>
        <time>2025-10-02T08:13:48Z</time>
      </trkpt>
      <trkpt lat="48.4213" lon="6.38749">
        <ele>268</ele>
        <time>2025-10-02T08:13:55Z</time>
      </trkpt>
      <trkpt lat="48.42024" lon="6.38847">
        <ele>269</ele>
        <time>2025-10-02T08:14:17Z</time>
      </trkpt>
      <trkpt lat="48.41948" lon="6.38909">
        <ele>269</ele>
        <time>2025-10-02T08:14:33Z</time>
      </trkpt>
      <trkpt lat="48.41866" lon="6.38972">
        <ele>270</ele>
        <time>2025-10-02T08:14:49Z</time>
      </trkpt>
      <trkpt lat="48.41853" lon="6.38985">
        <ele>271</ele>
        <time>2025-10-02T08:14:52Z</time>
      </trkpt>
      <trkpt lat="48.41787" lon="6.39088">
        <ele>276</ele>
        <time>2025-10-02T08:15:09Z</time>
      </trkpt>
      <trkpt lat="48.41769" lon="6.39113">
        <ele>278</ele>
        <time>2025-10-02T08:15:13Z</time>
      </trkpt>
      <trkpt lat="48.41751" lon="6.39128">
        <ele>279</ele>
        <time>2025-10-02T08:15:17Z</time>
      </trkpt>
      <trkpt lat="48.41672" lon="6.39196">
        <ele>282</ele>
        <time>2025-10-02T08:15:33Z</time>
      </trkpt>
      <trkpt lat="48.41667" lon="6.392">
        <ele>282</ele>
        <time>2025-10-02T08:15:34Z</time>
      </trkpt>
      <trkpt lat="48.41672" lon="6.39196">
        <ele>282</ele>
        <time>2025-10-02T08:15:35Z</time>
      </trkpt>
      <trkpt lat="48.41676" lon="6.39209">
        <ele>283</ele>
        <time>2025-10-02T08:15:37Z</time>
      </trkpt>
      <trkpt lat="48.41715" lon="6.39284">
        <ele>287</ele>
        <time>2025-10-02T08:15:48Z</time>
      </trkpt>
      <trkpt lat="48.41769" lon="6.39378">
        <ele>291</ele>
        <time>2025-10-02T08:16:02Z</time>
      </trkpt>
      <trkpt lat="48.41795" lon="6.39427">
        <ele>293</ele>
        <time>2025-10-02T08:16:10Z</time>
      </trkpt>
      <trkpt lat="48.41835" lon="6.39477">
        <ele>295</ele>
        <time>2025-10-02T08:16:19Z</time>
      </trkpt>
      <trkpt lat="48.41885" lon="6.39545">
        <ele>298</ele>
        <time>2025-10-02T08:16:31Z</time>
      </trkpt>
      <trkpt lat="48.41924" lon="6.39589">
        <ele>299</ele>
        <time>2025-10-02T08:16:40Z</time>
      </trkpt>
      <trkpt lat="48.4196" lon="6.39613">
        <ele>299</ele>
        <time>2025-10-02T08:16:47Z</time>
      </trkpt>
      <trkpt lat="48.41985" lon="6.39626">
        <ele>299</ele>
        <time>2025-10-02T08:16:51Z</time>
      </trkpt>
      <trkpt lat="48.41999" lon="6.39636">
        <ele>299</ele>
        <time>2025-10-02T08:16:54Z</time>
      </trkpt>
      <trkpt lat="48.42018" lon="6.39658">
        <ele>299</ele>
        <time>2025-10-02T08:16:59Z</time>
      </trkpt>
      <trkpt lat="48.42118" lon="6.39805">
        <ele>296</ele>
        <time>2025-10-02T08:17:23Z</time>
      </trkpt>
      <trkpt lat="48.4214" lon="6.39842">
        <ele>294</ele>
        <time>2025-10-02T08:17:29Z</time>
      </trkpt>
      <trkpt lat="48.42153" lon="6.39877">
        <ele>294</ele>
        <time>2025-10-02T08:17:34Z</time>
      </trkpt>
      <trkpt lat="48.42183" lon="6.40001">
        <ele>289</ele>
        <time>2025-10-02T08:17:50Z</time>
      </trkpt>
      <trkpt lat="48.42221" lon="6.40154">
        <ele>286</ele>
        <time>2025-10-02T08:18:09Z</time>
      </trkpt>
      <trkpt lat="48.42262" lon="6.40327">
        <ele>282</ele>
        <time>2025-10-02T08:18:31Z</time>
      </trkpt>
      <trkpt lat="48.42291" lon="6.40459">
        <ele>281</ele>
        <time>2025-10-02T08:18:47Z</time>
      </trkpt>
      <trkpt lat="48.42302" lon="6.40509">
        <ele>281</ele>
        <time>2025-10-02T08:18:53Z</time>
      </trkpt>
      <trkpt lat="48.42306" lon="6.40547">
        <ele>281</ele>
        <time>2025-10-02T08:18:58Z</time>
      </trkpt>
      <trkpt lat="48.42304" lon="6.40588">
        <ele>280</ele>
        <time>2025-10-02T08:19:03Z</time>
      </trkpt>
      <trkpt lat="48.42295" lon="6.4066">
        <ele>280</ele>
        <time>2025-10-02T08:19:11Z</time>
      </trkpt>
      <trkpt lat="48.42291" lon="6.40706">
        <ele>279</ele>
        <time>2025-10-02T08:19:17Z</time>
      </trkpt>
      <trkpt lat="48.42292" lon="6.40748">
        <ele>278</ele>
        <time>2025-10-02T08:19:22Z</time>
      </trkpt>
      <trkpt lat="48.42292" lon="6.40844">
        <ele>274</ele>
        <time>2025-10-02T08:19:33Z</time>
      </trkpt>
      <trkpt lat="48.42284" lon="6.40949">
        <ele>272</ele>
        <time>2025-10-02T08:19:45Z</time>
      </trkpt>
      <trkpt lat="48.42284" lon="6.40981">
        <ele>271</ele>
        <time>2025-10-02T08:19:49Z</time>
      </trkpt>
      <trkpt lat="48.4229" lon="6.41025">
        <ele>271</ele>
        <time>2025-10-02T08:19:55Z</time>
      </trkpt>
      <trkpt lat="48.42303" lon="6.41091">
        <ele>270</ele>
        <time>2025-10-02T08:20:03Z</time>
      </trkpt>
      <trkpt lat="48.42326" lon="6.41189">
        <ele>272</ele>
        <time>2025-10-02T08:20:15Z</time>
      </trkpt>
      <trkpt lat="48.42377" lon="6.41395">
        <ele>280</ele>
        <time>2025-10-02T08:20:41Z</time>
      </trkpt>
      <trkpt lat="48.42408" lon="6.41497">
        <ele>285</ele>
        <time>2025-10-02T08:20:54Z</time>
      </trkpt>
      <trkpt lat="48.42425" lon="6.41542">
        <ele>289</ele>
        <time>2025-10-02T08:21:00Z</time>
      </trkpt>
      <trkpt lat="48.42429" lon="6.41545">
        <ele>289</ele>
        <time>2025-10-02T08:21:01Z</time>
      </trkpt>
      <trkpt lat="48.42446" lon="6.4156">
        <ele>291</ele>
        <time>2025-10-02T08:21:05Z</time>
      </trkpt>
      <trkpt lat="48.42481" lon="6.4157">
        <ele>293</ele>
        <time>2025-10-02T08:21:11Z</time>
      </trkpt>
      <trkpt lat="48.42497" lon="6.41585">
        <ele>295</ele>
        <time>2025-10-02T08:21:14Z</time>
      </trkpt>
      <trkpt lat="48.42652" lon="6.42015">
        <ele>312</ele>
        <time>2025-10-02T08:22:12Z</time>
      </trkpt>
      <trkpt lat="48.42741" lon="6.42127">
        <ele>309</ele>
        <time>2025-10-02T08:22:33Z</time>
      </trkpt>
      <trkpt lat="48.42747" lon="6.42138">
        <ele>309</ele>
        <time>2025-10-02T08:22:34Z</time>
      </trkpt>
      <trkpt lat="48.42756" lon="6.42166">
        <ele>309</ele>
        <time>2025-10-02T08:22:38Z</time>
      </trkpt>
      <trkpt lat="48.42825" lon="6.42444">
        <ele>301</ele>
        <time>2025-10-02T08:23:13Z</time>
      </trkpt>
      <trkpt lat="48.42837" lon="6.42494">
        <ele>295</ele>
        <time>2025-10-02T08:23:19Z</time>
      </trkpt>
      <trkpt lat="48.42921" lon="6.42754">
        <ele>290</ele>
        <time>2025-10-02T08:23:54Z</time>
      </trkpt>
      <trkpt lat="48.42964" lon="6.42906">
        <ele>285</ele>
        <time>2025-10-02T08:24:13Z</time>
      </trkpt>
      <trkpt lat="48.43013" lon="6.43123">
        <ele>284</ele>
        <time>2025-10-02T08:24:40Z</time>
      </trkpt>
      <trkpt lat="48.43024" lon="6.4324">
        <ele>283</ele>
        <time>2025-10-02T08:24:54Z</time>
      </trkpt>
      <trkpt lat="48.43029" lon="6.43269">
        <ele>282</ele>
        <time>2025-10-02T08:24:58Z</time>
      </trkpt>
      <trkpt lat="48.43033" lon="6.43286">
        <ele>282</ele>
        <time>2025-10-02T08:25:00Z</time>
      </trkpt>
      <trkpt lat="48.4304" lon="6.43316">
        <ele>282</ele>
        <time>2025-10-02T08:25:03Z</time>
      </trkpt>
      <trkpt lat="48.43072" lon="6.43429">
        <ele>282</ele>
        <time>2025-10-02T08:25:18Z</time>
      </trkpt>
      <trkpt lat="48.43075" lon="6.43438">
        <ele>282</ele>
        <time>2025-10-02T08:25:19Z</time>
      </trkpt>
      <trkpt lat="48.43086" lon="6.43504">
        <ele>281</ele>
        <time>2025-10-02T08:25:27Z</time>
      </trkpt>
      <trkpt lat="48.43098" lon="6.43604">
        <ele>276</ele>
        <time>2025-10-02T08:25:39Z</time>
      </trkpt>
      <trkpt lat="48.43107" lon="6.43638">
        <ele>274</ele>
        <time>2025-10-02T08:25:44Z</time>
      </trkpt>
      <trkpt lat="48.43115" lon="6.43656">
        <ele>273</ele>
        <time>2025-10-02T08:25:46Z</time>
      </trkpt>
      <trkpt lat="48.43114" lon="6.43666">
        <ele>273</ele>
        <time>2025-10-02T08:25:47Z</time>
      </trkpt>
      <trkpt lat="48.43115" lon="6.43656">
        <ele>273</ele>
        <time>2025-10-02T08:25:48Z</time>
      </trkpt>
      <trkpt lat="48.43124" lon="6.43645">
        <ele>274</ele>
        <time>2025-10-02T08:25:51Z</time>
      </trkpt>
      <trkpt lat="48.43135" lon="6.43636">
        <ele>274</ele>
        <time>2025-10-02T08:25:53Z</time>
      </trkpt>
      <trkpt lat="48.43151" lon="6.4363">
        <ele>274</ele>
        <time>2025-10-02T08:25:56Z</time>
      </trkpt>
      <trkpt lat="48.43224" lon="6.43616">
        <ele>273</ele>
        <time>2025-10-02T08:26:09Z</time>
      </trkpt>
      <trkpt lat="48.43294" lon="6.43613">
        <ele>272</ele>
        <time>2025-10-02T08:26:21Z</time>
      </trkpt>
      <trkpt lat="48.43398" lon="6.43595">
        <ele>269</ele>
        <time>2025-10-02T08:26:40Z</time>
      </trkpt>
      <trkpt lat="48.43442" lon="6.43605">
        <ele>268</ele>
        <time>2025-10-02T08:26:48Z</time>
      </trkpt>
      <trkpt lat="48.43474" lon="6.43605">
        <ele>268</ele>
        <time>2025-10-02T08:26:53Z</time>
      </trkpt>
      <trkpt lat="48.43518" lon="6.43582">
        <ele>270</ele>
        <time>2025-10-02T08:27:02Z</time>
      </trkpt>
      <trkpt lat="48.4369" lon="6.43399">
        <ele>276</ele>
        <time>2025-10-02T08:27:39Z</time>
      </trkpt>
      <trkpt lat="48.43787" lon="6.43319">
        <ele>278</ele>
        <time>2025-10-02T08:27:59Z</time>
      </trkpt>
      <trkpt lat="48.43854" lon="6.43233">
        <ele>274</ele>
        <time>2025-10-02T08:28:15Z</time>
      </trkpt>
      <trkpt lat="48.43925" lon="6.43153">
        <ele>270</ele>
        <time>2025-10-02T08:28:30Z</time>
      </trkpt>
      <trkpt lat="48.43966" lon="6.43122">
        <ele>269</ele>
        <time>2025-10-02T08:28:38Z</time>
      </trkpt>
      <trkpt lat="48.43973" lon="6.43118">
        <ele>269</ele>
        <time>2025-10-02T08:28:40Z</time>
      </trkpt>
      <trkpt lat="48.43987" lon="6.43111">
        <ele>269</ele>
        <time>2025-10-02T08:28:42Z</time>
      </trkpt>
      <trkpt lat="48.4414" lon="6.43073">
        <ele>278</ele>
        <time>2025-10-02T08:29:10Z</time>
      </trkpt>
      <trkpt lat="48.44329" lon="6.42907">
        <ele>279</ele>
        <time>2025-10-02T08:29:49Z</time>
      </trkpt>
      <trkpt lat="48.4438" lon="6.42832">
        <ele>276</ele>
        <time>2025-10-02T08:30:02Z</time>
      </trkpt>
      <trkpt lat="48.44394" lon="6.42818">
        <ele>275</ele>
        <time>2025-10-02T08:30:05Z</time>
      </trkpt>
      <trkpt lat="48.44404" lon="6.42818">
        <ele>275</ele>
        <time>2025-10-02T08:30:06Z</time>
      </trkpt>
      <trkpt lat="48.44408" lon="6.42818">
        <ele>275</ele>
        <time>2025-10-02T08:30:07Z</time>
      </trkpt>
      <trkpt lat="48.44419" lon="6.42823">
        <ele>274</ele>
        <time>2025-10-02T08:30:09Z</time>
      </trkpt>
      <trkpt lat="48.44452" lon="6.4285">
        <ele>273</ele>
        <time>2025-10-02T08:30:16Z</time>
      </trkpt>
      <trkpt lat="48.44484" lon="6.42881">
        <ele>271</ele>
        <time>2025-10-02T08:30:23Z</time>
      </trkpt>
      <trkpt lat="48.44506" lon="6.42906">
        <ele>270</ele>
        <time>2025-10-02T08:30:27Z</time>
      </trkpt>
      <trkpt lat="48.44526" lon="6.42934">
        <ele>270</ele>
        <time>2025-10-02T08:30:32Z</time>
      </trkpt>
      <trkpt lat="48.44544" lon="6.42964">
        <ele>269</ele>
        <time>2025-10-02T08:30:37Z</time>
      </trkpt>
      <trkpt lat="48.44584" lon="6.43043">
        <ele>266</ele>
        <time>2025-10-02T08:30:49Z</time>
      </trkpt>
      <trkpt lat="48.44602" lon="6.43074">
        <ele>265</ele>
        <time>2025-10-02T08:30:54Z</time>
      </trkpt>
      <trkpt lat="48.44619" lon="6.43101">
        <ele>264</ele>
        <time>2025-10-02T08:30:58Z</time>
      </trkpt>
      <trkpt lat="48.44635" lon="6.43122">
        <ele>264</ele>
        <time>2025-10-02T08:31:02Z</time>
      </trkpt>
      <trkpt lat="48.44656" lon="6.43139">
        <ele>263</ele>
        <time>2025-10-02T08:31:06Z</time>
      </trkpt>
      <trkpt lat="48.44672" lon="6.4315">
        <ele>263</ele>
        <time>2025-10-02T08:31:09Z</time>
      </trkpt>
      <trkpt lat="48.44683" lon="6.43157">
        <ele>263</ele>
        <time>2025-10-02T08:31:11Z</time>
      </trkpt>
      <trkpt lat="48.44755" lon="6.4319">
        <ele>263</ele>
        <time>2025-10-02T08:31:25Z</time>
      </trkpt>
      <trkpt lat="48.44764" lon="6.43195">
        <ele>263</ele>
        <time>2025-10-02T08:31:26Z</time>
      </trkpt>
      <trkpt lat="48.44776" lon="6.43201">
        <ele>263</ele>
        <time>2025-10-02T08:31:29Z</time>
      </trkpt>
      <trkpt lat="48.44787" lon="6.43206">
        <ele>263</ele>
        <time>2025-10-02T08:31:31Z</time>
      </trkpt>
      <trkpt lat="48.44806" lon="6.43215">
        <ele>263</ele>
        <time>2025-10-02T08:31:34Z</time>
      </trkpt>
      <trkpt lat="48.44823" lon="6.43221">
        <ele>263</ele>
        <time>2025-10-02T08:31:37Z</time>
      </trkpt>
      <trkpt lat="48.44841" lon="6.43228">
        <ele>264</ele>
        <time>2025-10-02T08:31:41Z</time>
      </trkpt>
      <trkpt lat="48.44857" lon="6.43231">
        <ele>265</ele>
        <time>2025-10-02T08:31:44Z</time>
      </trkpt>
      <trkpt lat="48.44916" lon="6.43236">
        <ele>270</ele>
        <time>2025-10-02T08:31:54Z</time>
      </trkpt>
      <trkpt lat="48.44934" lon="6.43235">
        <ele>272</ele>
        <time>2025-10-02T08:31:57Z</time>
      </trkpt>
      <trkpt lat="48.44945" lon="6.43236">
        <ele>274</ele>
        <time>2025-10-02T08:31:59Z</time>
      </trkpt>
      <trkpt lat="48.44953" lon="6.43238">
        <ele>276</ele>
        <time>2025-10-02T08:32:01Z</time>
      </trkpt>
      <trkpt lat="48.44958" lon="6.43243">
        <ele>276</ele>
        <time>2025-10-02T08:32:02Z</time>
      </trkpt>
      <trkpt lat="48.4496" lon="6.43232">
        <ele>277</ele>
        <time>2025-10-02T08:32:03Z</time>
      </trkpt>
      <trkpt lat="48.44957" lon="6.43225">
        <ele>276</ele>
        <time>2025-10-02T08:32:04Z</time>
      </trkpt>
      <trkpt lat="48.44956" lon="6.43218">
        <ele>276</ele>
        <time>2025-10-02T08:32:05Z</time>
      </trkpt>
      <trkpt lat="48.44958" lon="6.43214">
        <ele>276</ele>
        <time>2025-10-02T08:32:06Z</time>
      </trkpt>
      <trkpt lat="48.44964" lon="6.43212">
        <ele>278</ele>
        <time>2025-10-02T08:32:07Z</time>
      </trkpt>
      <trkpt lat="48.44975" lon="6.43213">
        <ele>279</ele>
        <time>2025-10-02T08:32:09Z</time>
      </trkpt>
      <trkpt lat="48.44982" lon="6.43217">
        <ele>281</ele>
        <time>2025-10-02T08:32:10Z</time>
      </trkpt>
      <trkpt lat="48.44988" lon="6.43225">
        <ele>282</ele>
        <time>2025-10-02T08:32:11Z</time>
      </trkpt>
      <trkpt lat="48.44996" lon="6.43231">
        <ele>283</ele>
        <time>2025-10-02T08:32:13Z</time>
      </trkpt>
      <trkpt lat="48.45005" lon="6.43233">
        <ele>284</ele>
        <time>2025-10-02T08:32:15Z</time>
      </trkpt>
      <trkpt lat="48.45036" lon="6.43235">
        <ele>288</ele>
        <time>2025-10-02T08:32:20Z</time>
      </trkpt>
      <trkpt lat="48.45038" lon="6.4321">
        <ele>289</ele>
        <time>2025-10-02T08:32:23Z</time>
      </trkpt>
      <trkpt lat="48.4504" lon="6.43197">
        <ele>289</ele>
        <time>2025-10-02T08:32:25Z</time>
      </trkpt>
      <trkpt lat="48.45043" lon="6.43188">
        <ele>290</ele>
        <time>2025-10-02T08:32:26Z</time>
      </trkpt>
      <trkpt lat="48.45049" lon="6.43176">
        <ele>291</ele>
        <time>2025-10-02T08:32:28Z</time>
      </trkpt>
      <trkpt lat="48.45054" lon="6.43171">
        <ele>291</ele>
        <time>2025-10-02T08:32:29Z</time>
      </trkpt>
      <trkpt lat="48.4506" lon="6.4317">
        <ele>292</ele>
        <time>2025-10-02T08:32:30Z</time>
      </trkpt>
      <trkpt lat="48.45075" lon="6.43175">
        <ele>294</ele>
        <time>2025-10-02T08:32:32Z</time>
      </trkpt>
      <trkpt lat="48.45083" lon="6.43178">
        <ele>295</ele>
        <time>2025-10-02T08:32:34Z</time>
      </trkpt>
      <trkpt lat="48.45085" lon="6.43155">
        <ele>295</ele>
        <time>2025-10-02T08:32:37Z</time>
      </trkpt>
      <trkpt lat="48.45085" lon="6.43128">
        <ele>296</ele>
        <time>2025-10-02T08:32:40Z</time>
      </trkpt>
      <trkpt lat="48.45083" lon="6.43109">
        <ele>297</ele>
        <time>2025-10-02T08:32:42Z</time>
      </trkpt>
      <trkpt lat="48.45077" lon="6.43064">
        <ele>296</ele>
        <time>2025-10-02T08:32:48Z</time>
      </trkpt>
      <trkpt lat="48.45076" lon="6.43048">
        <ele>295</ele>
        <time>2025-10-02T08:32:49Z</time>
      </trkpt>
      <trkpt lat="48.45075" lon="6.4303">
        <ele>294</ele>
        <time>2025-10-02T08:32:52Z</time>
      </trkpt>
      <trkpt lat="48.4508" lon="6.42946">
        <ele>294</ele>
        <time>2025-10-02T08:33:02Z</time>
      </trkpt>
      <trkpt lat="48.4508" lon="6.42927">
        <ele>293</ele>
        <time>2025-10-02T08:33:04Z</time>
      </trkpt>
      <trkpt lat="48.45078" lon="6.42892">
        <ele>293</ele>
        <time>2025-10-02T08:33:08Z</time>
      </trkpt>
      <trkpt lat="48.45074" lon="6.42869">
        <ele>292</ele>
        <time>2025-10-02T08:33:11Z</time>
      </trkpt>
      <trkpt lat="48.45063" lon="6.42823">
        <ele>289</ele>
        <time>2025-10-02T08:33:17Z</time>
      </trkpt>
      <trkpt lat="48.4506" lon="6.42807">
        <ele>287</ele>
        <time>2025-10-02T08:33:18Z</time>
      </trkpt>
      <trkpt lat="48.45058" lon="6.42793">
        <ele>286</ele>
        <time>2025-10-02T08:33:20Z</time>
      </trkpt>
      <trkpt lat="48.45058" lon="6.42779">
        <ele>286</ele>
        <time>2025-10-02T08:33:22Z</time>
      </trkpt>
      <trkpt lat="48.45059" lon="6.42766">
        <ele>286</ele>
        <time>2025-10-02T08:33:23Z</time>
      </trkpt>
      <trkpt lat="48.45063" lon="6.42738">
        <ele>285</ele>
        <time>2025-10-02T08:33:27Z</time>
      </trkpt>
      <trkpt lat="48.45077" lon="6.42645">
        <ele>280</ele>
        <time>2025-10-02T08:33:38Z</time>
      </trkpt>
      <trkpt lat="48.45082" lon="6.42619">
        <ele>278</ele>
        <time>2025-10-02T08:33:41Z</time>
      </trkpt>
      <trkpt lat="48.45086" lon="6.42598">
        <ele>276</ele>
        <time>2025-10-02T08:33:44Z</time>
      </trkpt>
      <trkpt lat="48.45093" lon="6.42573">
        <ele>275</ele>
        <time>2025-10-02T08:33:47Z</time>
      </trkpt>
      <trkpt lat="48.45109" lon="6.42528">
        <ele>273</ele>
        <time>2025-10-02T08:33:53Z</time>
      </trkpt>
      <trkpt lat="48.45121" lon="6.42502">
        <ele>272</ele>
        <time>2025-10-02T08:33:57Z</time>
      </trkpt>
      <trkpt lat="48.45134" lon="6.42477">
        <ele>271</ele>
        <time>2025-10-02T08:34:00Z</time>
      </trkpt>
      <trkpt lat="48.45144" lon="6.42461">
        <ele>270</ele>
        <time>2025-10-02T08:34:03Z</time>
      </trkpt>
      <trkpt lat="48.45161" lon="6.42439">
        <ele>268</ele>
        <time>2025-10-02T08:34:07Z</time>
      </trkpt>
      <trkpt lat="48.4517" lon="6.4243">
        <ele>268</ele>
        <time>2025-10-02T08:34:09Z</time>
      </trkpt>
      <trkpt lat="48.45209" lon="6.42402">
        <ele>266</ele>
        <time>2025-10-02T08:34:17Z</time>
      </trkpt>
      <trkpt lat="48.45215" lon="6.42396">
        <ele>266</ele>
        <time>2025-10-02T08:34:18Z</time>
      </trkpt>
      <trkpt lat="48.4522" lon="6.42389">
        <ele>266</ele>
        <time>2025-10-02T08:34:19Z</time>
      </trkpt>
      <trkpt lat="48.45223" lon="6.42391">
        <ele>266</ele>
        <time>2025-10-02T08:34:20Z</time>
      </trkpt>
      <trkpt lat="48.45227" lon="6.42391">
        <ele>266</ele>
        <time>2025-10-02T08:34:20Z</time>
      </trkpt>
      <trkpt lat="48.45232" lon="6.42389">
        <ele>266</ele>
        <time>2025-10-02T08:34:21Z</time>
      </trkpt>
      <trkpt lat="48.45248" lon="6.42377">
        <ele>266</ele>
        <time>2025-10-02T08:34:25Z</time>
      </trkpt>
      <trkpt lat="48.45269" lon="6.42353">
        <ele>266</ele>
        <time>2025-10-02T08:34:29Z</time>
      </trkpt>
      <trkpt lat="48.45314" lon="6.42302">
        <ele>265</ele>
        <time>2025-10-02T08:34:39Z</time>
      </trkpt>
      <trkpt lat="48.45341" lon="6.42275">
        <ele>264</ele>
        <time>2025-10-02T08:34:45Z</time>
      </trkpt>
      <trkpt lat="48.45358" lon="6.42262">
        <ele>264</ele>
        <time>2025-10-02T08:34:48Z</time>
      </trkpt>
      <trkpt lat="48.45381" lon="6.42249">
        <ele>263</ele>
        <time>2025-10-02T08:34:53Z</time>
      </trkpt>
      <trkpt lat="48.45399" lon="6.42243">
        <ele>263</ele>
        <time>2025-10-02T08:34:56Z</time>
      </trkpt>
      <trkpt lat="48.45413" lon="6.42241">
        <ele>263</ele>
        <time>2025-10-02T08:34:59Z</time>
      </trkpt>
      <trkpt lat="48.45431" lon="6.4224">
        <ele>263</ele>
        <time>2025-10-02T08:35:02Z</time>
      </trkpt>
      <trkpt lat="48.45455" lon="6.42239">
        <ele>264</ele>
        <time>2025-10-02T08:35:06Z</time>
      </trkpt>
      <trkpt lat="48.4547" lon="6.42235">
        <ele>264</ele>
        <time>2025-10-02T08:35:09Z</time>
      </trkpt>
      <trkpt lat="48.45483" lon="6.42228">
        <ele>264</ele>
        <time>2025-10-02T08:35:11Z</time>
      </trkpt>
      <trkpt lat="48.45503" lon="6.42213">
        <ele>263</ele>
        <time>2025-10-02T08:35:15Z</time>
      </trkpt>
      <trkpt lat="48.4552" lon="6.42194">
        <ele>263</ele>
        <time>2025-10-02T08:35:19Z</time>
      </trkpt>
      <trkpt lat="48.45534" lon="6.42171">
        <ele>264</ele>
        <time>2025-10-02T08:35:23Z</time>
      </trkpt>
      <trkpt lat="48.45543" lon="6.42151">
        <ele>264</ele>
        <time>2025-10-02T08:35:25Z</time>
      </trkpt>
      <trkpt lat="48.4555" lon="6.42129">
        <ele>265</ele>
        <time>2025-10-02T08:35:28Z</time>
      </trkpt>
      <trkpt lat="48.45555" lon="6.42096">
        <ele>265</ele>
        <time>2025-10-02T08:35:32Z</time>
      </trkpt>
      <trkpt lat="48.45575" lon="6.41967">
        <ele>264</ele>
        <time>2025-10-02T08:35:48Z</time>
      </trkpt>
      <trkpt lat="48.45581" lon="6.4194">
        <ele>263</ele>
        <time>2025-10-02T08:35:51Z</time>
      </trkpt>
      <trkpt lat="48.45591" lon="6.41909">
        <ele>263</ele>
        <time>2025-10-02T08:35:55Z</time>
      </trkpt>
      <trkpt lat="48.45602" lon="6.41885">
        <ele>263</ele>
        <time>2025-10-02T08:35:59Z</time>
      </trkpt>
      <trkpt lat="48.45615" lon="6.41864">
        <ele>263</ele>
        <time>2025-10-02T08:36:02Z</time>
      </trkpt>
      <trkpt lat="48.4563" lon="6.41845">
        <ele>263</ele>
        <time>2025-10-02T08:36:06Z</time>
      </trkpt>
      <trkpt lat="48.45673" lon="6.418">
        <ele>262</ele>
        <time>2025-10-02T08:36:15Z</time>
      </trkpt>
      <trkpt lat="48.45728" lon="6.41746">
        <ele>261</ele>
        <time>2025-10-02T08:36:27Z</time>
      </trkpt>
      <trkpt lat="48.45753" lon="6.41725">
        <ele>261</ele>
        <time>2025-10-02T08:36:32Z</time>
      </trkpt>
      <trkpt lat="48.45772" lon="6.41715">
        <ele>261</ele>
        <time>2025-10-02T08:36:35Z</time>
      </trkpt>
      <trkpt lat="48.45793" lon="6.41707">
        <ele>261</ele>
        <time>2025-10-02T08:36:39Z</time>
      </trkpt>
      <trkpt lat="48.4585" lon="6.41693">
        <ele>261</ele>
        <time>2025-10-02T08:36:50Z</time>
      </trkpt>
      <trkpt lat="48.45875" lon="6.41689">
        <ele>261</ele>
        <time>2025-10-02T08:36:54Z</time>
      </trkpt>
      <trkpt lat="48.45894" lon="6.41688">
        <ele>260</ele>
        <time>2025-10-02T08:36:57Z</time>
      </trkpt>
      <trkpt lat="48.45911" lon="6.41691">
        <ele>260</ele>
        <time>2025-10-02T08:37:00Z</time>
      </trkpt>
      <trkpt lat="48.45947" lon="6.41703">
        <ele>261</ele>
        <time>2025-10-02T08:37:07Z</time>
      </trkpt>
      <trkpt lat="48.46003" lon="6.41732">
        <ele>262</ele>
        <time>2025-10-02T08:37:18Z</time>
      </trkpt>
      <trkpt lat="48.46025" lon="6.41741">
        <ele>262</ele>
        <time>2025-10-02T08:37:22Z</time>
      </trkpt>
      <trkpt lat="48.46039" lon="6.41745">
        <ele>262</ele>
        <time>2025-10-02T08:37:24Z</time>
      </trkpt>
      <trkpt lat="48.46064" lon="6.41745">
        <ele>261</ele>
        <time>2025-10-02T08:37:29Z</time>
      </trkpt>
      <trkpt lat="48.46101" lon="6.41727">
        <ele>261</ele>
        <time>2025-10-02T08:37:35Z</time>
      </trkpt>
      <trkpt lat="48.46116" lon="6.41718">
        <ele>261</ele>
        <time>2025-10-02T08:37:38Z</time>
      </trkpt>
      <trkpt lat="48.46138" lon="6.41702">
        <ele>261</ele>
        <time>2025-10-02T08:37:43Z</time>
      </trkpt>
      <trkpt lat="48.46152" lon="6.4169">
        <ele>261</ele>
        <time>2025-10-02T08:37:46Z</time>
      </trkpt>
      <trkpt lat="48.46173" lon="6.41663">
        <ele>261</ele>
        <time>2025-10-02T08:37:50Z</time>
      </trkpt>
      <trkpt lat="48.46347" lon="6.41396">
        <ele>262</ele>
        <time>2025-10-02T08:38:35Z</time>
      </trkpt>
      <trkpt lat="48.46364" lon="6.41375">
        <ele>262</ele>
        <time>2025-10-02T08:38:39Z</time>
      </trkpt>
      <trkpt lat="48.46379" lon="6.41359">
        <ele>261</ele>
        <time>2025-10-02T08:38:42Z</time>
      </trkpt>
      <trkpt lat="48.46398" lon="6.41346">
        <ele>261</ele>
        <time>2025-10-02T08:38:46Z</time>
      </trkpt>
      <trkpt lat="48.46434" lon="6.41326">
        <ele>262</ele>
        <time>2025-10-02T08:38:52Z</time>
      </trkpt>
      <trkpt lat="48.4646" lon="6.4131">
        <ele>263</ele>
        <time>2025-10-02T08:38:57Z</time>
      </trkpt>
      <trkpt lat="48.46479" lon="6.41296">
        <ele>263</ele>
        <time>2025-10-02T08:39:01Z</time>
      </trkpt>
      <trkpt lat="48.46492" lon="6.41284">
        <ele>264</ele>
        <time>2025-10-02T08:39:04Z</time>
      </trkpt>
      <trkpt lat="48.46551" lon="6.41218">
        <ele>264</ele>
        <time>2025-10-02T08:39:17Z</time>
      </trkpt>
      <trkpt lat="48.46557" lon="6.41211">
        <ele>264</ele>
        <time>2025-10-02T08:39:18Z</time>
      </trkpt>
      <trkpt lat="48.46613" lon="6.41155">
        <ele>264</ele>
        <time>2025-10-02T08:39:30Z</time>
      </trkpt>
      <trkpt lat="48.46651" lon="6.41116">
        <ele>264</ele>
        <time>2025-10-02T08:39:38Z</time>
      </trkpt>
      <trkpt lat="48.4667" lon="6.41094">
        <ele>264</ele>
        <time>2025-10-02T08:39:43Z</time>
      </trkpt>
      <trkpt lat="48.46681" lon="6.41078">
        <ele>264</ele>
        <time>2025-10-02T08:39:45Z</time>
      </trkpt>
      <trkpt lat="48.46693" lon="6.41058">
        <ele>263</ele>
        <time>2025-10-02T08:39:49Z</time>
      </trkpt>
      <trkpt lat="48.46707" lon="6.41029">
        <ele>263</ele>
        <time>2025-10-02T08:39:53Z</time>
      </trkpt>
      <trkpt lat="48.46723" lon="6.41002">
        <ele>262</ele>
        <time>2025-10-02T08:39:57Z</time>
      </trkpt>
      <trkpt lat="48.46734" lon="6.40984">
        <ele>262</ele>
        <time>2025-10-02T08:40:00Z</time>
      </trkpt>
      <trkpt lat="48.46744" lon="6.40971">
        <ele>261</ele>
        <time>2025-10-02T08:40:02Z</time>
      </trkpt>
      <trkpt lat="48.46864" lon="6.40851">
        <ele>262</ele>
        <time>2025-10-02T08:40:28Z</time>
      </trkpt>
      <trkpt lat="48.46891" lon="6.40868">
        <ele>264</ele>
        <time>2025-10-02T08:40:33Z</time>
      </trkpt>
      <trkpt lat="48.469" lon="6.40872">
        <ele>264</ele>
        <time>2025-10-02T08:40:35Z</time>
      </trkpt>
      <trkpt lat="48.46916" lon="6.40877">
        <ele>265</ele>
        <time>2025-10-02T08:40:38Z</time>
      </trkpt>
      <trkpt lat="48.46924" lon="6.40878">
        <ele>265</ele>
        <time>2025-10-02T08:40:39Z</time>
      </trkpt>
      <trkpt lat="48.46936" lon="6.40878">
        <ele>266</ele>
        <time>2025-10-02T08:40:41Z</time>
      </trkpt>
      <trkpt lat="48.47006" lon="6.40871">
        <ele>267</ele>
        <time>2025-10-02T08:40:54Z</time>
      </trkpt>
      <trkpt lat="48.47059" lon="6.40864">
        <ele>267</ele>
        <time>2025-10-02T08:41:03Z</time>
      </trkpt>
      <trkpt lat="48.4707" lon="6.40862">
        <ele>268</ele>
        <time>2025-10-02T08:41:05Z</time>
      </trkpt>
      <trkpt lat="48.4708" lon="6.40858">
        <ele>268</ele>
        <time>2025-10-02T08:41:07Z</time>
      </trkpt>
      <trkpt lat="48.47082" lon="6.40846">
        <ele>267</ele>
        <time>2025-10-02T08:41:08Z</time>
      </trkpt>
      <trkpt lat="48.47086" lon="6.40838">
        <ele>267</ele>
        <time>2025-10-02T08:41:10Z</time>
      </trkpt>
      <trkpt lat="48.47114" lon="6.40789">
        <ele>270</ele>
        <time>2025-10-02T08:41:17Z</time>
      </trkpt>
      <trkpt lat="48.47138" lon="6.40754">
        <ele>272</ele>
        <time>2025-10-02T08:41:23Z</time>
      </trkpt>
      <trkpt lat="48.47155" lon="6.40717">
        <ele>272</ele>
        <time>2025-10-02T08:41:29Z</time>
      </trkpt>
      <trkpt lat="48.47196" lon="6.40634">
        <ele>273</ele>
        <time>2025-10-02T08:41:41Z</time>
      </trkpt>
      <trkpt lat="48.4722" lon="6.40598">
        <ele>274</ele>
        <time>2025-10-02T08:41:47Z</time>
      </trkpt>
      <trkpt lat="48.47223" lon="6.40592">
        <ele>274</ele>
        <time>2025-10-02T08:41:48Z</time>
      </trkpt>
      <trkpt lat="48.47256" lon="6.40539">
        <ele>276</ele>
        <time>2025-10-02T08:41:56Z</time>
      </trkpt>
      <trkpt lat="48.47272" lon="6.40506">
        <ele>278</ele>
        <time>2025-10-02T08:42:01Z</time>
      </trkpt>
      <trkpt lat="48.47289" lon="6.40462">
        <ele>279</ele>
        <time>2025-10-02T08:42:07Z</time>
      </trkpt>
      <trkpt lat="48.47292" lon="6.40451">
        <ele>279</ele>
        <time>2025-10-02T08:42:08Z</time>
      </trkpt>
      <trkpt lat="48.47296" lon="6.40435">
        <ele>279</ele>
        <time>2025-10-02T08:42:10Z</time>
      </trkpt>
      <trkpt lat="48.473" lon="6.40424">
        <ele>279</ele>
        <time>2025-10-02T08:42:12Z</time>
      </trkpt>
      <trkpt lat="48.47323" lon="6.40392">
        <ele>279</ele>
        <time>2025-10-02T08:42:18Z</time>
      </trkpt>
      <trkpt lat="48.47326" lon="6.40385">
        <ele>279</ele>
        <time>2025-10-02T08:42:19Z</time>
      </trkpt>
      <trkpt lat="48.47328" lon="6.40378">
        <ele>279</ele>
        <time>2025-10-02T08:42:19Z</time>
      </trkpt>
      <trkpt lat="48.47328" lon="6.40371">
        <ele>279</ele>
        <time>2025-10-02T08:42:20Z</time>
      </trkpt>
      <trkpt lat="48.47327" lon="6.40364">
        <ele>279</ele>
        <time>2025-10-02T08:42:21Z</time>
      </trkpt>
      <trkpt lat="48.47305" lon="6.40302">
        <ele>280</ele>
        <time>2025-10-02T08:42:29Z</time>
      </trkpt>
      <trkpt lat="48.47303" lon="6.40289">
        <ele>280</ele>
        <time>2025-10-02T08:42:31Z</time>
      </trkpt>
      <trkpt lat="48.47303" lon="6.40276">
        <ele>281</ele>
        <time>2025-10-02T08:42:32Z</time>
      </trkpt>
      <trkpt lat="48.47304" lon="6.40251">
        <ele>282</ele>
        <time>2025-10-02T08:42:35Z</time>
      </trkpt>
      <trkpt lat="48.47303" lon="6.40239">
        <ele>282</ele>
        <time>2025-10-02T08:42:37Z</time>
      </trkpt>
      <trkpt lat="48.47287" lon="6.40163">
        <ele>281</ele>
        <time>2025-10-02T08:42:46Z</time>
      </trkpt>
      <trkpt lat="48.47278" lon="6.40116">
        <ele>280</ele>
        <time>2025-10-02T08:42:52Z</time>
      </trkpt>
      <trkpt lat="48.47277" lon="6.40105">
        <ele>279</ele>
        <time>2025-10-02T08:42:53Z</time>
      </trkpt>
      <trkpt lat="48.47276" lon="6.40083">
        <ele>278</ele>
        <time>2025-10-02T08:42:56Z</time>
      </trkpt>
      <trkpt lat="48.47277" lon="6.40068">
        <ele>278</ele>
        <time>2025-10-02T08:42:58Z</time>
      </trkpt>
      <trkpt lat="48.47284" lon="6.40032">
        <ele>277</ele>
        <time>2025-10-02T08:43:02Z</time>
      </trkpt>
      <trkpt lat="48.47348" lon="6.39715">
        <ele>280</ele>
        <time>2025-10-02T08:43:41Z</time>
      </trkpt>
      <trkpt lat="48.47348" lon="6.39698">
        <ele>280</ele>
        <time>2025-10-02T08:43:43Z</time>
      </trkpt>
      <trkpt lat="48.47347" lon="6.39683">
        <ele>280</ele>
        <time>2025-10-02T08:43:45Z</time>
      </trkpt>
      <trkpt lat="48.4734" lon="6.39644">
        <ele>280</ele>
        <time>2025-10-02T08:43:50Z</time>
      </trkpt>
      <trkpt lat="48.47328" lon="6.39595">
        <ele>281</ele>
        <time>2025-10-02T08:43:56Z</time>
      </trkpt>
      <trkpt lat="48.47279" lon="6.3943">
        <ele>281</ele>
        <time>2025-10-02T08:44:17Z</time>
      </trkpt>
      <trkpt lat="48.47273" lon="6.39393">
        <ele>280</ele>
        <time>2025-10-02T08:44:22Z</time>
      </trkpt>
      <trkpt lat="48.47271" lon="6.39373">
        <ele>280</ele>
        <time>2025-10-02T08:44:24Z</time>
      </trkpt>
      <trkpt lat="48.47271" lon="6.39352">
        <ele>280</ele>
        <time>2025-10-02T08:44:27Z</time>
      </trkpt>
      <trkpt lat="48.47275" lon="6.39273">
        <ele>279</ele>
        <time>2025-10-02T08:44:36Z</time>
      </trkpt>
      <trkpt lat="48.47281" lon="6.39195">
        <ele>278</ele>
        <time>2025-10-02T08:44:45Z</time>
      </trkpt>
      <trkpt lat="48.47285" lon="6.39159">
        <ele>277</ele>
        <time>2025-10-02T08:44:50Z</time>
      </trkpt>
      <trkpt lat="48.47289" lon="6.39137">
        <ele>276</ele>
        <time>2025-10-02T08:44:52Z</time>
      </trkpt>
      <trkpt lat="48.47294" lon="6.39118">
        <ele>275</ele>
        <time>2025-10-02T08:44:55Z</time>
      </trkpt>
      <trkpt lat="48.47299" lon="6.39101">
        <ele>274</ele>
        <time>2025-10-02T08:44:57Z</time>
      </trkpt>
      <trkpt lat="48.47318" lon="6.39058">
        <ele>272</ele>
        <time>2025-10-02T08:45:03Z</time>
      </trkpt>
      <trkpt lat="48.47339" lon="6.39018">
        <ele>270</ele>
        <time>2025-10-02T08:45:09Z</time>
      </trkpt>
      <trkpt lat="48.47385" lon="6.38946">
        <ele>265</ele>
        <time>2025-10-02T08:45:21Z</time>
      </trkpt>
      <trkpt lat="48.47394" lon="6.3893">
        <ele>264</ele>
        <time>2025-10-02T08:45:23Z</time>
      </trkpt>
      <trkpt lat="48.47398" lon="6.3892">
        <ele>263</ele>
        <time>2025-10-02T08:45:25Z</time>
      </trkpt>
      <trkpt lat="48.47401" lon="6.38909">
        <ele>263</ele>
        <time>2025-10-02T08:45:26Z</time>
      </trkpt>
      <trkpt lat="48.47403" lon="6.3889">
        <ele>262</ele>
        <time>2025-10-02T08:45:28Z</time>
      </trkpt>
      <trkpt lat="48.47403" lon="6.38836">
        <ele>261</ele>
        <time>2025-10-02T08:45:35Z</time>
      </trkpt>
      <trkpt lat="48.47402" lon="6.38808">
        <ele>260</ele>
        <time>2025-10-02T08:45:38Z</time>
      </trkpt>
      <trkpt lat="48.47402" lon="6.38802">
        <ele>260</ele>
        <time>2025-10-02T08:45:39Z</time>
      </trkpt>
      <trkpt lat="48.47399" lon="6.38781">
        <ele>260</ele>
        <time>2025-10-02T08:45:41Z</time>
      </trkpt>
      <trkpt lat="48.47393" lon="6.38752">
        <ele>259</ele>
        <time>2025-10-02T08:45:45Z</time>
      </trkpt>
      <trkpt lat="48.47383" lon="6.38711">
        <ele>258</ele>
        <time>2025-10-02T08:45:50Z</time>
      </trkpt>
      <trkpt lat="48.47377" lon="6.38693">
        <ele>258</ele>
        <time>2025-10-02T08:45:52Z</time>
      </trkpt>
      <trkpt lat="48.47368" lon="6.38673">
        <ele>258</ele>
        <time>2025-10-02T08:45:55Z</time>
      </trkpt>
      <trkpt lat="48.47352" lon="6.38635">
        <ele>258</ele>
        <time>2025-10-02T08:46:00Z</time>
      </trkpt>
      <trkpt lat="48.47338" lon="6.386">
        <ele>259</ele>
        <time>2025-10-02T08:46:05Z</time>
      </trkpt>
      <trkpt lat="48.47336" lon="6.38584">
        <ele>259</ele>
        <time>2025-10-02T08:46:07Z</time>
      </trkpt>
      <trkpt lat="48.47335" lon="6.38571">
        <ele>259</ele>
        <time>2025-10-02T08:46:09Z</time>
      </trkpt>
      <trkpt lat="48.47337" lon="6.38556">
        <ele>260</ele>
        <time>2025-10-02T08:46:11Z</time>
      </trkpt>
      <trkpt lat="48.47341" lon="6.38541">
        <ele>261</ele>
        <time>2025-10-02T08:46:12Z</time>
      </trkpt>
      <trkpt lat="48.47346" lon="6.38529">
        <ele>261</ele>
        <time>2025-10-02T08:46:14Z</time>
      </trkpt>
      <trkpt lat="48.47354" lon="6.38513">
        <ele>262</ele>
        <time>2025-10-02T08:46:17Z</time>
      </trkpt>
      <trkpt lat="48.47526" lon="6.38248">
        <ele>274</ele>
        <time>2025-10-02T08:47:00Z</time>
      </trkpt>
      <trkpt lat="48.47533" lon="6.38235">
        <ele>275</ele>
        <time>2025-10-02T08:47:02Z</time>
      </trkpt>
      <trkpt lat="48.47539" lon="6.38219">
        <ele>275</ele>
        <time>2025-10-02T08:47:04Z</time>
      </trkpt>
      <trkpt lat="48.47599" lon="6.38021">
        <ele>272</ele>
        <time>2025-10-02T08:47:30Z</time>
      </trkpt>
      <trkpt lat="48.47605" lon="6.37998">
        <ele>272</ele>
        <time>2025-10-02T08:47:33Z</time>
      </trkpt>
      <trkpt lat="48.47606" lon="6.37989">
        <ele>272</ele>
        <time>2025-10-02T08:47:34Z</time>
      </trkpt>
      <trkpt lat="48.47606" lon="6.3798">
        <ele>272</ele>
        <time>2025-10-02T08:47:35Z</time>
      </trkpt>
      <trkpt lat="48.47605" lon="6.37972">
        <ele>272</ele>
        <time>2025-10-02T08:47:36Z</time>
      </trkpt>
      <trkpt lat="48.47603" lon="6.37963">
        <ele>272</ele>
        <time>2025-10-02T08:47:37Z</time>
      </trkpt>
      <trkpt lat="48.47596" lon="6.37948">
        <ele>273</ele>
        <time>2025-10-02T08:47:39Z</time>
      </trkpt>
      <trkpt lat="48.47449" lon="6.37694">
        <ele>273</ele>
        <time>2025-10-02T08:48:19Z</time>
      </trkpt>
      <trkpt lat="48.47209" lon="6.37358">
        <ele>258</ele>
        <time>2025-10-02T08:49:17Z</time>
      </trkpt>
      <trkpt lat="48.47195" lon="6.37338">
        <ele>257</ele>
        <time>2025-10-02T08:49:21Z</time>
      </trkpt>
      <trkpt lat="48.47186" lon="6.37321">
        <ele>256</ele>
        <time>2025-10-02T08:49:23Z</time>
      </trkpt>
      <trkpt lat="48.47182" lon="6.37307">
        <ele>256</ele>
        <time>2025-10-02T08:49:25Z</time>
      </trkpt>
      <trkpt lat="48.47182" lon="6.37295">
        <ele>255</ele>
        <time>2025-10-02T08:49:27Z</time>
      </trkpt>
      <trkpt lat="48.47183" lon="6.37283">
        <ele>255</ele>
        <time>2025-10-02T08:49:28Z</time>
      </trkpt>
      <trkpt lat="48.47186" lon="6.37271">
        <ele>255</ele>
        <time>2025-10-02T08:49:30Z</time>
      </trkpt>
      <trkpt lat="48.47268" lon="6.37059">
        <ele>255</ele>
        <time>2025-10-02T08:49:59Z</time>
      </trkpt>
      <trkpt lat="48.47296" lon="6.36995">
        <ele>254</ele>
        <time>2025-10-02T08:50:08Z</time>
      </trkpt>
      <trkpt lat="48.47307" lon="6.36963">
        <ele>254</ele>
        <time>2025-10-02T08:50:12Z</time>
      </trkpt>
      <trkpt lat="48.47309" lon="6.36951">
        <ele>254</ele>
        <time>2025-10-02T08:50:13Z</time>
      </trkpt>
      <trkpt lat="48.4731" lon="6.36937">
        <ele>254</ele>
        <time>2025-10-02T08:50:15Z</time>
      </trkpt>
      <trkpt lat="48.47307" lon="6.36905">
        <ele>254</ele>
        <time>2025-10-02T08:50:19Z</time>
      </trkpt>
      <trkpt lat="48.47297" lon="6.36835">
        <ele>254</ele>
        <time>2025-10-02T08:50:27Z</time>
      </trkpt>
      <trkpt lat="48.47293" lon="6.36815">
        <ele>254</ele>
        <time>2025-10-02T08:50:30Z</time>
      </trkpt>
      <trkpt lat="48.47287" lon="6.36798">
        <ele>254</ele>
        <time>2025-10-02T08:50:32Z</time>
      </trkpt>
      <trkpt lat="48.47142" lon="6.36557">
        <ele>253</ele>
        <time>2025-10-02T08:51:10Z</time>
      </trkpt>
      <trkpt lat="48.47134" lon="6.36534">
        <ele>253</ele>
        <time>2025-10-02T08:51:13Z</time>
      </trkpt>
      <trkpt lat="48.47128" lon="6.36508">
        <ele>253</ele>
        <time>2025-10-02T08:51:17Z</time>
      </trkpt>
      <trkpt lat="48.47118" lon="6.36442">
        <ele>252</ele>
        <time>2025-10-02T08:51:25Z</time>
      </trkpt>
      <trkpt lat="48.47112" lon="6.36376">
        <ele>252</ele>
        <time>2025-10-02T08:51:32Z</time>
      </trkpt>
      <trkpt lat="48.47102" lon="6.36131">
        <ele>251</ele>
        <time>2025-10-02T08:52:01Z</time>
      </trkpt>
      <trkpt lat="48.47098" lon="6.35947">
        <ele>252</ele>
        <time>2025-10-02T08:52:23Z</time>
      </trkpt>
      <trkpt lat="48.47089" lon="6.35805">
        <ele>254</ele>
        <time>2025-10-02T08:52:40Z</time>
      </trkpt>
      <trkpt lat="48.47084" lon="6.35763">
        <ele>255</ele>
        <time>2025-10-02T08:52:45Z</time>
      </trkpt>
      <trkpt lat="48.47076" lon="6.3573">
        <ele>256</ele>
        <time>2025-10-02T08:52:49Z</time>
      </trkpt>
      <trkpt lat="48.4707" lon="6.35711">
        <ele>257</ele>
        <time>2025-10-02T08:52:52Z</time>
      </trkpt>
      <trkpt lat="48.47065" lon="6.357">
        <ele>257</ele>
        <time>2025-10-02T08:52:53Z</time>
      </trkpt>
      <trkpt lat="48.47038" lon="6.35654">
        <ele>257</ele>
        <time>2025-10-02T08:53:00Z</time>
      </trkpt>
      <trkpt lat="48.47028" lon="6.35636">
        <ele>257</ele>
        <time>2025-10-02T08:53:03Z</time>
      </trkpt>
      <trkpt lat="48.47013" lon="6.35598">
        <ele>258</ele>
        <time>2025-10-02T08:53:08Z</time>
      </trkpt>
      <trkpt lat="48.46988" lon="6.35525">
        <ele>258</ele>
        <time>2025-10-02T08:53:18Z</time>
      </trkpt>
      <trkpt lat="48.46975" lon="6.35488">
        <ele>258</ele>
        <time>2025-10-02T08:53:23Z</time>
      </trkpt>
      <trkpt lat="48.46952" lon="6.35441">
        <ele>256</ele>
        <time>2025-10-02T08:53:30Z</time>
      </trkpt>
      <trkpt lat="48.46933" lon="6.35398">
        <ele>255</ele>
        <time>2025-10-02T08:53:36Z</time>
      </trkpt>
      <trkpt lat="48.46928" lon="6.35389">
        <ele>255</ele>
        <time>2025-10-02T08:53:37Z</time>
      </trkpt>
      <trkpt lat="48.46923" lon="6.35387">
        <ele>254</ele>
        <time>2025-10-02T08:53:38Z</time>
      </trkpt>
      <trkpt lat="48.46916" lon="6.35389">
        <ele>254</ele>
        <time>2025-10-02T08:53:40Z</time>
      </trkpt>
      <trkpt lat="48.46874" lon="6.35422">
        <ele>251</ele>
        <time>2025-10-02T08:53:48Z</time>
      </trkpt>
      <trkpt lat="48.46849" lon="6.35442">
        <ele>250</ele>
        <time>2025-10-02T08:53:53Z</time>
      </trkpt>
      <trkpt lat="48.46835" lon="6.35452">
        <ele>250</ele>
        <time>2025-10-02T08:53:56Z</time>
      </trkpt>
      <trkpt lat="48.4683" lon="6.35456">
        <ele>249</ele>
        <time>2025-10-02T08:53:57Z</time>
      </trkpt>
      <trkpt lat="48.46812" lon="6.35463">
        <ele>249</ele>
        <time>2025-10-02T08:54:00Z</time>
      </trkpt>
      <trkpt lat="48.46794" lon="6.35466">
        <ele>249</ele>
        <time>2025-10-02T08:54:03Z</time>
      </trkpt>
      <trkpt lat="48.46733" lon="6.35462">
        <ele>249</ele>
        <time>2025-10-02T08:54:14Z</time>
      </trkpt>
      <trkpt lat="48.46644" lon="6.35453">
        <ele>250</ele>
        <time>2025-10-02T08:54:30Z</time>
      </trkpt>
      <trkpt lat="48.46622" lon="6.35447">
        <ele>251</ele>
        <time>2025-10-02T08:54:34Z</time>
      </trkpt>
      <trkpt lat="48.46597" lon="6.35431">
        <ele>252</ele>
        <time>2025-10-02T08:54:39Z</time>
      </trkpt>
      <trkpt lat="48.46573" lon="6.35406">
        <ele>254</ele>
        <time>2025-10-02T08:54:44Z</time>
      </trkpt>
      <trkpt lat="48.46518" lon="6.35335">
        <ele>257</ele>
        <time>2025-10-02T08:54:57Z</time>
      </trkpt>
      <trkpt lat="48.46507" lon="6.35317">
        <ele>258</ele>
        <time>2025-10-02T08:55:00Z</time>
      </trkpt>
      <trkpt lat="48.46494" lon="6.35292">
        <ele>259</ele>
        <time>2025-10-02T08:55:04Z</time>
      </trkpt>
      <trkpt lat="48.46507" lon="6.35255">
        <ele>258</ele>
        <time>2025-10-02T08:55:09Z</time>
      </trkpt>
      <trkpt lat="48.46516" lon="6.35228">
        <ele>258</ele>
        <time>2025-10-02T08:55:12Z</time>
      </trkpt>
      <trkpt lat="48.46544" lon="6.35126">
        <ele>258</ele>
        <time>2025-10-02T08:55:25Z</time>
      </trkpt>
      <trkpt lat="48.46558" lon="6.35064">
        <ele>257</ele>
        <time>2025-10-02T08:55:33Z</time>
      </trkpt>
      <trkpt lat="48.46561" lon="6.35047">
        <ele>257</ele>
        <time>2025-10-02T08:55:35Z</time>
      </trkpt>
      <trkpt lat="48.46565" lon="6.35016">
        <ele>256</ele>
        <time>2025-10-02T08:55:39Z</time>
      </trkpt>
      <trkpt lat="48.46571" lon="6.34962">
        <ele>255</ele>
        <time>2025-10-02T08:55:45Z</time>
      </trkpt>
      <trkpt lat="48.46574" lon="6.34917">
        <ele>255</ele>
        <time>2025-10-02T08:55:51Z</time>
      </trkpt>
      <trkpt lat="48.46576" lon="6.34882">
        <ele>255</ele>
        <time>2025-10-02T08:55:55Z</time>
      </trkpt>
      <trkpt lat="48.46577" lon="6.34833">
        <ele>255</ele>
        <time>2025-10-02T08:56:00Z</time>
      </trkpt>
      <trkpt lat="48.46574" lon="6.34777">
        <ele>256</ele>
        <time>2025-10-02T08:56:07Z</time>
      </trkpt>
      <trkpt lat="48.46562" lon="6.34641">
        <ele>258</ele>
        <time>2025-10-02T08:56:23Z</time>
      </trkpt>
      <trkpt lat="48.46561" lon="6.34617">
        <ele>257</ele>
        <time>2025-10-02T08:56:26Z</time>
      </trkpt>
      <trkpt lat="48.46562" lon="6.346">
        <ele>257</ele>
        <time>2025-10-02T08:56:28Z</time>
      </trkpt>
      <trkpt lat="48.46565" lon="6.3456">
        <ele>258</ele>
        <time>2025-10-02T08:56:33Z</time>
      </trkpt>
      <trkpt lat="48.46569" lon="6.34527">
        <ele>258</ele>
        <time>2025-10-02T08:56:37Z</time>
      </trkpt>
      <trkpt lat="48.46577" lon="6.34474">
        <ele>260</ele>
        <time>2025-10-02T08:56:43Z</time>
      </trkpt>
      <trkpt lat="48.46584" lon="6.3443">
        <ele>262</ele>
        <time>2025-10-02T08:56:49Z</time>
      </trkpt>
      <trkpt lat="48.46602" lon="6.34344">
        <ele>264</ele>
        <time>2025-10-02T08:56:59Z</time>
      </trkpt>
      <trkpt lat="48.46605" lon="6.34326">
        <ele>265</ele>
        <time>2025-10-02T08:57:01Z</time>
      </trkpt>
      <trkpt lat="48.46608" lon="6.34288">
        <ele>265</ele>
        <time>2025-10-02T08:57:06Z</time>
      </trkpt>
      <trkpt lat="48.46609" lon="6.34228">
        <ele>264</ele>
        <time>2025-10-02T08:57:13Z</time>
      </trkpt>
      <trkpt lat="48.46608" lon="6.34182">
        <ele>263</ele>
        <time>2025-10-02T08:57:18Z</time>
      </trkpt>
      <trkpt lat="48.46605" lon="6.34095">
        <ele>260</ele>
        <time>2025-10-02T08:57:29Z</time>
      </trkpt>
      <trkpt lat="48.46597" lon="6.33881">
        <ele>256</ele>
        <time>2025-10-02T08:57:54Z</time>
      </trkpt>
      <trkpt lat="48.46596" lon="6.33861">
        <ele>256</ele>
        <time>2025-10-02T08:57:56Z</time>
      </trkpt>
      <trkpt lat="48.46597" lon="6.33841">
        <ele>257</ele>
        <time>2025-10-02T08:57:59Z</time>
      </trkpt>
      <trkpt lat="48.46599" lon="6.33827">
        <ele>257</ele>
        <time>2025-10-02T08:58:00Z</time>
      </trkpt>
      <trkpt lat="48.46602" lon="6.33813">
        <ele>257</ele>
        <time>2025-10-02T08:58:02Z</time>
      </trkpt>
      <trkpt lat="48.4661" lon="6.33788">
        <ele>258</ele>
        <time>2025-10-02T08:58:05Z</time>
      </trkpt>
      <trkpt lat="48.46657" lon="6.33685">
        <ele>258</ele>
        <time>2025-10-02T08:58:20Z</time>
      </trkpt>
      <trkpt lat="48.4667" lon="6.33656">
        <ele>257</ele>
        <time>2025-10-02T08:58:24Z</time>
      </trkpt>
      <trkpt lat="48.46677" lon="6.33638">
        <ele>257</ele>
        <time>2025-10-02T08:58:27Z</time>
      </trkpt>
      <trkpt lat="48.46683" lon="6.33619">
        <ele>257</ele>
        <time>2025-10-02T08:58:29Z</time>
      </trkpt>
      <trkpt lat="48.46693" lon="6.3358">
        <ele>257</ele>
        <time>2025-10-02T08:58:34Z</time>
      </trkpt>
      <trkpt lat="48.46711" lon="6.3349">
        <ele>257</ele>
        <time>2025-10-02T08:58:45Z</time>
      </trkpt>
      <trkpt lat="48.46714" lon="6.33479">
        <ele>257</ele>
        <time>2025-10-02T08:58:47Z</time>
      </trkpt>
      <trkpt lat="48.46722" lon="6.33451">
        <ele>257</ele>
        <time>2025-10-02T08:58:50Z</time>
      </trkpt>
      <trkpt lat="48.46729" lon="6.33433">
        <ele>257</ele>
        <time>2025-10-02T08:58:53Z</time>
      </trkpt>
      <trkpt lat="48.46756" lon="6.33365">
        <ele>259</ele>
        <time>2025-10-02T08:59:02Z</time>
      </trkpt>
      <trkpt lat="48.46793" lon="6.33284">
        <ele>259</ele>
        <time>2025-10-02T08:59:14Z</time>
      </trkpt>
      <trkpt lat="48.46813" lon="6.33239">
        <ele>260</ele>
        <time>2025-10-02T08:59:20Z</time>
      </trkpt>
      <trkpt lat="48.46906" lon="6.33037">
        <ele>265</ele>
        <time>2025-10-02T08:59:49Z</time>
      </trkpt>
      <trkpt lat="48.46915" lon="6.33025">
        <ele>265</ele>
        <time>2025-10-02T08:59:51Z</time>
      </trkpt>
      <trkpt lat="48.46937" lon="6.33007">
        <ele>264</ele>
        <time>2025-10-02T08:59:56Z</time>
      </trkpt>
      <trkpt lat="48.46945" lon="6.32998">
        <ele>264</ele>
        <time>2025-10-02T08:59:57Z</time>
      </trkpt>
      <trkpt lat="48.4695" lon="6.32988">
        <ele>264</ele>
        <time>2025-10-02T08:59:59Z</time>
      </trkpt>
      <trkpt lat="48.46952" lon="6.32981">
        <ele>264</ele>
        <time>2025-10-02T09:00:00Z</time>
      </trkpt>
      <trkpt lat="48.46956" lon="6.32961">
        <ele>264</ele>
        <time>2025-10-02T09:00:02Z</time>
      </trkpt>
      <trkpt lat="48.46959" lon="6.32936">
        <ele>264</ele>
        <time>2025-10-02T09:00:05Z</time>
      </trkpt>
      <trkpt lat="48.46963" lon="6.3287">
        <ele>265</ele>
        <time>2025-10-02T09:00:13Z</time>
      </trkpt>
      <trkpt lat="48.46966" lon="6.32848">
        <ele>265</ele>
        <time>2025-10-02T09:00:16Z</time>
      </trkpt>
      <trkpt lat="48.46968" lon="6.32836">
        <ele>265</ele>
        <time>2025-10-02T09:00:17Z</time>
      </trkpt>
      <trkpt lat="48.47047" lon="6.32605">
        <ele>260</ele>
        <time>2025-10-02T09:00:48Z</time>
      </trkpt>
      <trkpt lat="48.47052" lon="6.32583">
        <ele>260</ele>
        <time>2025-10-02T09:00:51Z</time>
      </trkpt>
      <trkpt lat="48.47057" lon="6.3255">
        <ele>259</ele>
        <time>2025-10-02T09:00:55Z</time>
      </trkpt>
      <trkpt lat="48.47058" lon="6.32521">
        <ele>259</ele>
        <time>2025-10-02T09:00:58Z</time>
      </trkpt>
      <trkpt lat="48.47057" lon="6.32443">
        <ele>259</ele>
        <time>2025-10-02T09:01:07Z</time>
      </trkpt>
      <trkpt lat="48.4706" lon="6.32401">
        <ele>258</ele>
        <time>2025-10-02T09:01:12Z</time>
      </trkpt>
      <trkpt lat="48.47092" lon="6.32321">
        <ele>257</ele>
        <time>2025-10-02T09:01:23Z</time>
      </trkpt>
      <trkpt lat="48.471" lon="6.32298">
        <ele>257</ele>
        <time>2025-10-02T09:01:26Z</time>
      </trkpt>
      <trkpt lat="48.47105" lon="6.32276">
        <ele>257</ele>
        <time>2025-10-02T09:01:29Z</time>
      </trkpt>
      <trkpt lat="48.47111" lon="6.32246">
        <ele>257</ele>
        <time>2025-10-02T09:01:33Z</time>
      </trkpt>
      <trkpt lat="48.47124" lon="6.32155">
        <ele>256</ele>
        <time>2025-10-02T09:01:44Z</time>
      </trkpt>
      <trkpt lat="48.47126" lon="6.32121">
        <ele>257</ele>
        <time>2025-10-02T09:01:48Z</time>
      </trkpt>
      <trkpt lat="48.47126" lon="6.32091">
        <ele>258</ele>
        <time>2025-10-02T09:01:51Z</time>
      </trkpt>
      <trkpt lat="48.47124" lon="6.32056">
        <ele>259</ele>
        <time>2025-10-02T09:01:55Z</time>
      </trkpt>
      <trkpt lat="48.47115" lon="6.31893">
        <ele>264</ele>
        <time>2025-10-02T09:02:15Z</time>
      </trkpt>
      <trkpt lat="48.47115" lon="6.31878">
        <ele>264</ele>
        <time>2025-10-02T09:02:17Z</time>
      </trkpt>
      <trkpt lat="48.47117" lon="6.31869">
        <ele>264</ele>
        <time>2025-10-02T09:02:18Z</time>
      </trkpt>
      <trkpt lat="48.47121" lon="6.31858">
        <ele>264</ele>
        <time>2025-10-02T09:02:19Z</time>
      </trkpt>
      <trkpt lat="48.47127" lon="6.3185">
        <ele>264</ele>
        <time>2025-10-02T09:02:21Z</time>
      </trkpt>
      <trkpt lat="48.47137" lon="6.31841">
        <ele>265</ele>
        <time>2025-10-02T09:02:23Z</time>
      </trkpt>
      <trkpt lat="48.4718" lon="6.3181">
        <ele>266</ele>
        <time>2025-10-02T09:02:31Z</time>
      </trkpt>
      <trkpt lat="48.47293" lon="6.31708">
        <ele>266</ele>
        <time>2025-10-02T09:02:55Z</time>
      </trkpt>
      <trkpt lat="48.47321" lon="6.31682">
        <ele>265</ele>
        <time>2025-10-02T09:03:00Z</time>
      </trkpt>
      <trkpt lat="48.47349" lon="6.31652">
        <ele>265</ele>
        <time>2025-10-02T09:03:06Z</time>
      </trkpt>
      <trkpt lat="48.47376" lon="6.31623">
        <ele>265</ele>
        <time>2025-10-02T09:03:12Z</time>
      </trkpt>
      <trkpt lat="48.47408" lon="6.31583">
        <ele>265</ele>
        <time>2025-10-02T09:03:20Z</time>
      </trkpt>
      <trkpt lat="48.47411" lon="6.31578">
        <ele>265</ele>
        <time>2025-10-02T09:03:21Z</time>
      </trkpt>
      <trkpt lat="48.47415" lon="6.31574">
        <ele>265</ele>
        <time>2025-10-02T09:03:21Z</time>
      </trkpt>
      <trkpt lat="48.47418" lon="6.31569">
        <ele>265</ele>
        <time>2025-10-02T09:03:22Z</time>
      </trkpt>
      <trkpt lat="48.4742" lon="6.31561">
        <ele>264</ele>
        <time>2025-10-02T09:03:23Z</time>
      </trkpt>
      <trkpt lat="48.4742" lon="6.31547">
        <ele>264</ele>
        <time>2025-10-02T09:03:25Z</time>
      </trkpt>
      <trkpt lat="48.47439" lon="6.31532">
        <ele>264</ele>
        <time>2025-10-02T09:03:29Z</time>
      </trkpt>
      <trkpt lat="48.47482" lon="6.31493">
        <ele>265</ele>
        <time>2025-10-02T09:03:38Z</time>
      </trkpt>
      <trkpt lat="48.47497" lon="6.31479">
        <ele>265</ele>
        <time>2025-10-02T09:03:41Z</time>
      </trkpt>
      <trkpt lat="48.47543" lon="6.31431">
        <ele>263</ele>
        <time>2025-10-02T09:03:51Z</time>
      </trkpt>
      <trkpt lat="48.47576" lon="6.31396">
        <ele>262</ele>
        <time>2025-10-02T09:03:58Z</time>
      </trkpt>
      <trkpt lat="48.47583" lon="6.31389">
        <ele>261</ele>
        <time>2025-10-02T09:03:59Z</time>
      </trkpt>
      <trkpt lat="48.47597" lon="6.31373">
        <ele>260</ele>
        <time>2025-10-02T09:04:03Z</time>
      </trkpt>
      <trkpt lat="48.47616" lon="6.31339">
        <ele>259</ele>
        <time>2025-10-02T09:04:08Z</time>
      </trkpt>
      <trkpt lat="48.47621" lon="6.31332">
        <ele>259</ele>
        <time>2025-10-02T09:04:09Z</time>
      </trkpt>
      <trkpt lat="48.47627" lon="6.31324">
        <ele>259</ele>
        <time>2025-10-02T09:04:10Z</time>
      </trkpt>
      <trkpt lat="48.47648" lon="6.31309">
        <ele>259</ele>
        <time>2025-10-02T09:04:15Z</time>
      </trkpt>
      <trkpt lat="48.4765" lon="6.31307">
        <ele>260</ele>
        <time>2025-10-02T09:04:15Z</time>
      </trkpt>
      <trkpt lat="48.47655" lon="6.31304">
        <ele>260</ele>
        <time>2025-10-02T09:04:16Z</time>
      </trkpt>
      <trkpt lat="48.47668" lon="6.31295">
        <ele>260</ele>
        <time>2025-10-02T09:04:18Z</time>
      </trkpt>
      <trkpt lat="48.47674" lon="6.31293">
        <ele>259</ele>
        <time>2025-10-02T09:04:20Z</time>
      </trkpt>
      <trkpt lat="48.47676" lon="6.31288">
        <ele>259</ele>
        <time>2025-10-02T09:04:20Z</time>
      </trkpt>
      <trkpt lat="48.47678" lon="6.31285">
        <ele>259</ele>
        <time>2025-10-02T09:04:21Z</time>
      </trkpt>
      <trkpt lat="48.47713" lon="6.31247">
        <ele>254</ele>
        <time>2025-10-02T09:04:28Z</time>
      </trkpt>
      <trkpt lat="48.47728" lon="6.31228">
        <ele>253</ele>
        <time>2025-10-02T09:04:32Z</time>
      </trkpt>
      <trkpt lat="48.47741" lon="6.3121">
        <ele>252</ele>
        <time>2025-10-02T09:04:35Z</time>
      </trkpt>
      <trkpt lat="48.47783" lon="6.3114">
        <ele>249</ele>
        <time>2025-10-02T09:04:46Z</time>
      </trkpt>
      <trkpt lat="48.47797" lon="6.31114">
        <ele>248</ele>
        <time>2025-10-02T09:04:50Z</time>
      </trkpt>
      <trkpt lat="48.47808" lon="6.31095">
        <ele>247</ele>
        <time>2025-10-02T09:04:53Z</time>
      </trkpt>
      <trkpt lat="48.47826" lon="6.3105">
        <ele>246</ele>
        <time>2025-10-02T09:04:59Z</time>
      </trkpt>
      <trkpt lat="48.47828" lon="6.31042">
        <ele>246</ele>
        <time>2025-10-02T09:05:00Z</time>
      </trkpt>
      <trkpt lat="48.47846" lon="6.30968">
        <ele>245</ele>
        <time>2025-10-02T09:05:10Z</time>
      </trkpt>
      <trkpt lat="48.47849" lon="6.30947">
        <ele>245</ele>
        <time>2025-10-02T09:05:12Z</time>
      </trkpt>
      <trkpt lat="48.47869" lon="6.30849">
        <ele>245</ele>
        <time>2025-10-02T09:05:24Z</time>
      </trkpt>
      <trkpt lat="48.47872" lon="6.30825">
        <ele>244</ele>
        <time>2025-10-02T09:05:27Z</time>
      </trkpt>
      <trkpt lat="48.47873" lon="6.30813">
        <ele>244</ele>
        <time>2025-10-02T09:05:29Z</time>
      </trkpt>
      <trkpt lat="48.47873" lon="6.30805">
        <ele>244</ele>
        <time>2025-10-02T09:05:29Z</time>
      </trkpt>
      <trkpt lat="48.47872" lon="6.30793">
        <ele>244</ele>
        <time>2025-10-02T09:05:31Z</time>
      </trkpt>
      <trkpt lat="48.4787" lon="6.30783">
        <ele>244</ele>
        <time>2025-10-02T09:05:32Z</time>
      </trkpt>
      <trkpt lat="48.47864" lon="6.30765">
        <ele>244</ele>
        <time>2025-10-02T09:05:35Z</time>
      </trkpt>
      <trkpt lat="48.47831" lon="6.30689">
        <ele>244</ele>
        <time>2025-10-02T09:05:45Z</time>
      </trkpt>
      <trkpt lat="48.47791" lon="6.30603">
        <ele>244</ele>
        <time>2025-10-02T09:05:58Z</time>
      </trkpt>
      <trkpt lat="48.47779" lon="6.30575">
        <ele>244</ele>
        <time>2025-10-02T09:06:02Z</time>
      </trkpt>
      <trkpt lat="48.4777" lon="6.30554">
        <ele>243</ele>
        <time>2025-10-02T09:06:05Z</time>
      </trkpt>
      <trkpt lat="48.47741" lon="6.30491">
        <ele>242</ele>
        <time>2025-10-02T09:06:14Z</time>
      </trkpt>
      <trkpt lat="48.47708" lon="6.30421">
        <ele>243</ele>
        <time>2025-10-02T09:06:24Z</time>
      </trkpt>
      <trkpt lat="48.47704" lon="6.30413">
        <ele>243</ele>
        <time>2025-10-02T09:06:25Z</time>
      </trkpt>
      <trkpt lat="48.47703" lon="6.30414">
        <ele>243</ele>
        <time>2025-10-02T09:06:25Z</time>
      </trkpt>
    </trkseg>
  </trk>
</gpx>